<?xml version="1.0" encoding="utf-8"?>
<gpx xmlns:xsi="http://www.w3.org/2001/XMLSchema-instance" xmlns:xsd="http://www.w3.org/2001/XMLSchema" version="1.1" creator="Shapelink.com" xmlns="http://www.topografix.com/GPX/1/1" xmlns:gpxtpx="http://www.garmin.com/xmlschemas/TrackPointExtension/v1">
  <metadata>
    <name>Gåing 1.00 km, 2013-04-10</name>
    <desc></desc>
    <author><name>Mikael Blom</name></author> 
    <time>2013-04-10T18:43:38Z</time>
  </metadata>
  <trk>
    <name>Gåing 1.00 km, 2013-04-10</name>
    <trkseg>
      <trkpt lat="59.9743941" lon="17.731263">
        <ele>36.1868</ele>
        <time>2013-04-10T18:43:38Z</time>
      </trkpt>
      <trkpt lat="59.9743906" lon="17.7312827">
        <ele>35.7061</ele>
        <time>2013-04-10T18:43:39Z</time>
      </trkpt>
      <trkpt lat="59.9743879" lon="17.7313055">
        <ele>35.2255</ele>
        <time>2013-04-10T18:43:40Z</time>
      </trkpt>
      <trkpt lat="59.9743858" lon="17.7313283">
        <ele>35.2255</ele>
        <time>2013-04-10T18:43:41Z</time>
      </trkpt>
      <trkpt lat="59.9743849" lon="17.7313514">
        <ele>35.2255</ele>
        <time>2013-04-10T18:43:42Z</time>
      </trkpt>
      <trkpt lat="59.9743851" lon="17.7313765">
        <ele>35.2255</ele>
        <time>2013-04-10T18:43:43Z</time>
      </trkpt>
      <trkpt lat="59.9743822" lon="17.7314054">
        <ele>34.7449</ele>
        <time>2013-04-10T18:43:44Z</time>
      </trkpt>
      <trkpt lat="59.9743756" lon="17.7314346">
        <ele>34.2642</ele>
        <time>2013-04-10T18:43:45Z</time>
      </trkpt>
      <trkpt lat="59.9743694" lon="17.731462">
        <ele>34.2642</ele>
        <time>2013-04-10T18:43:46Z</time>
      </trkpt>
      <trkpt lat="59.9743675" lon="17.7314902">
        <ele>34.2642</ele>
        <time>2013-04-10T18:43:47Z</time>
      </trkpt>
      <trkpt lat="59.9743665" lon="17.7315187">
        <ele>34.2642</ele>
        <time>2013-04-10T18:43:48Z</time>
      </trkpt>
      <trkpt lat="59.9743667" lon="17.7315448">
        <ele>34.2642</ele>
        <time>2013-04-10T18:43:49Z</time>
      </trkpt>
      <trkpt lat="59.9743658" lon="17.7315708">
        <ele>34.2642</ele>
        <time>2013-04-10T18:43:50Z</time>
      </trkpt>
      <trkpt lat="59.9743598" lon="17.7315957">
        <ele>33.7834</ele>
        <time>2013-04-10T18:43:51Z</time>
      </trkpt>
      <trkpt lat="59.9743569" lon="17.7316193">
        <ele>33.3029</ele>
        <time>2013-04-10T18:43:52Z</time>
      </trkpt>
      <trkpt lat="59.974358" lon="17.7316453">
        <ele>32.8223</ele>
        <time>2013-04-10T18:43:53Z</time>
      </trkpt>
      <trkpt lat="59.9743558" lon="17.7316733">
        <ele>32.8223</ele>
        <time>2013-04-10T18:43:54Z</time>
      </trkpt>
      <trkpt lat="59.9743547" lon="17.7316992">
        <ele>32.3416</ele>
        <time>2013-04-10T18:43:55Z</time>
      </trkpt>
      <trkpt lat="59.9743548" lon="17.7317231">
        <ele>32.3416</ele>
        <time>2013-04-10T18:43:56Z</time>
      </trkpt>
      <trkpt lat="59.9743538" lon="17.7317502">
        <ele>31.8607</ele>
        <time>2013-04-10T18:43:57Z</time>
      </trkpt>
      <trkpt lat="59.974352" lon="17.7317795">
        <ele>31.8607</ele>
        <time>2013-04-10T18:43:58Z</time>
      </trkpt>
      <trkpt lat="59.9743515" lon="17.7318059">
        <ele>31.8607</ele>
        <time>2013-04-10T18:43:59Z</time>
      </trkpt>
      <trkpt lat="59.974351" lon="17.7318324">
        <ele>31.3801</ele>
        <time>2013-04-10T18:44:00Z</time>
      </trkpt>
      <trkpt lat="59.9743499" lon="17.7318607">
        <ele>31.3801</ele>
        <time>2013-04-10T18:44:01Z</time>
      </trkpt>
      <trkpt lat="59.9743492" lon="17.7318881">
        <ele>31.3801</ele>
        <time>2013-04-10T18:44:02Z</time>
      </trkpt>
      <trkpt lat="59.9743489" lon="17.7319156">
        <ele>30.8995</ele>
        <time>2013-04-10T18:44:03Z</time>
      </trkpt>
      <trkpt lat="59.9743494" lon="17.7319431">
        <ele>30.8995</ele>
        <time>2013-04-10T18:44:04Z</time>
      </trkpt>
      <trkpt lat="59.974351" lon="17.7319689">
        <ele>30.8995</ele>
        <time>2013-04-10T18:44:05Z</time>
      </trkpt>
      <trkpt lat="59.9743517" lon="17.7319932">
        <ele>30.8995</ele>
        <time>2013-04-10T18:44:06Z</time>
      </trkpt>
      <trkpt lat="59.9743517" lon="17.7320186">
        <ele>30.8995</ele>
        <time>2013-04-10T18:44:07Z</time>
      </trkpt>
      <trkpt lat="59.9743507" lon="17.7320453">
        <ele>30.8995</ele>
        <time>2013-04-10T18:44:08Z</time>
      </trkpt>
      <trkpt lat="59.9743496" lon="17.7320726">
        <ele>30.4188</ele>
        <time>2013-04-10T18:44:09Z</time>
      </trkpt>
      <trkpt lat="59.9743505" lon="17.7320989">
        <ele>30.4188</ele>
        <time>2013-04-10T18:44:10Z</time>
      </trkpt>
      <trkpt lat="59.9743518" lon="17.7321244">
        <ele>30.4188</ele>
        <time>2013-04-10T18:44:11Z</time>
      </trkpt>
      <trkpt lat="59.9743527" lon="17.732151">
        <ele>30.4188</ele>
        <time>2013-04-10T18:44:12Z</time>
      </trkpt>
      <trkpt lat="59.9743553" lon="17.7321751">
        <ele>30.4188</ele>
        <time>2013-04-10T18:44:13Z</time>
      </trkpt>
      <trkpt lat="59.9743558" lon="17.7321934">
        <ele>30.4188</ele>
        <time>2013-04-10T18:44:14Z</time>
      </trkpt>
      <trkpt lat="59.9743542" lon="17.7322146">
        <ele>30.4188</ele>
        <time>2013-04-10T18:44:15Z</time>
      </trkpt>
      <trkpt lat="59.9743526" lon="17.732238">
        <ele>29.9381</ele>
        <time>2013-04-10T18:44:16Z</time>
      </trkpt>
      <trkpt lat="59.9743501" lon="17.7322638">
        <ele>29.4575</ele>
        <time>2013-04-10T18:44:17Z</time>
      </trkpt>
      <trkpt lat="59.9743497" lon="17.732289">
        <ele>29.4575</ele>
        <time>2013-04-10T18:44:18Z</time>
      </trkpt>
      <trkpt lat="59.9743516" lon="17.7323164">
        <ele>29.4575</ele>
        <time>2013-04-10T18:44:19Z</time>
      </trkpt>
      <trkpt lat="59.9743553" lon="17.7323439">
        <ele>29.4575</ele>
        <time>2013-04-10T18:44:20Z</time>
      </trkpt>
      <trkpt lat="59.9743577" lon="17.7323731">
        <ele>29.9381</ele>
        <time>2013-04-10T18:44:21Z</time>
      </trkpt>
      <trkpt lat="59.9743579" lon="17.7324026">
        <ele>29.4575</ele>
        <time>2013-04-10T18:44:22Z</time>
      </trkpt>
      <trkpt lat="59.9743574" lon="17.7324331">
        <ele>29.4575</ele>
        <time>2013-04-10T18:44:23Z</time>
      </trkpt>
      <trkpt lat="59.9743568" lon="17.7324621">
        <ele>29.4575</ele>
        <time>2013-04-10T18:44:24Z</time>
      </trkpt>
      <trkpt lat="59.9743548" lon="17.7324896">
        <ele>28.9769</ele>
        <time>2013-04-10T18:44:25Z</time>
      </trkpt>
      <trkpt lat="59.9743539" lon="17.7325177">
        <ele>28.9769</ele>
        <time>2013-04-10T18:44:26Z</time>
      </trkpt>
      <trkpt lat="59.9743553" lon="17.7325456">
        <ele>28.9769</ele>
        <time>2013-04-10T18:44:27Z</time>
      </trkpt>
      <trkpt lat="59.9743561" lon="17.7325735">
        <ele>28.9769</ele>
        <time>2013-04-10T18:44:28Z</time>
      </trkpt>
      <trkpt lat="59.9743569" lon="17.7326005">
        <ele>28.9769</ele>
        <time>2013-04-10T18:44:29Z</time>
      </trkpt>
      <trkpt lat="59.9743565" lon="17.7326299">
        <ele>28.9769</ele>
        <time>2013-04-10T18:44:30Z</time>
      </trkpt>
      <trkpt lat="59.9743554" lon="17.7326602">
        <ele>28.4962</ele>
        <time>2013-04-10T18:44:31Z</time>
      </trkpt>
      <trkpt lat="59.9743554" lon="17.7326891">
        <ele>28.4962</ele>
        <time>2013-04-10T18:44:32Z</time>
      </trkpt>
      <trkpt lat="59.9743558" lon="17.7327171">
        <ele>28.4962</ele>
        <time>2013-04-10T18:44:33Z</time>
      </trkpt>
      <trkpt lat="59.9743558" lon="17.7327451">
        <ele>28.9769</ele>
        <time>2013-04-10T18:44:34Z</time>
      </trkpt>
      <trkpt lat="59.9743556" lon="17.7327733">
        <ele>28.9769</ele>
        <time>2013-04-10T18:44:35Z</time>
      </trkpt>
      <trkpt lat="59.9743548" lon="17.7328009">
        <ele>28.9769</ele>
        <time>2013-04-10T18:44:36Z</time>
      </trkpt>
      <trkpt lat="59.9743546" lon="17.7328279">
        <ele>28.9769</ele>
        <time>2013-04-10T18:44:37Z</time>
      </trkpt>
      <trkpt lat="59.9743552" lon="17.7328569">
        <ele>28.9769</ele>
        <time>2013-04-10T18:44:38Z</time>
      </trkpt>
      <trkpt lat="59.9743549" lon="17.7328857">
        <ele>28.9769</ele>
        <time>2013-04-10T18:44:39Z</time>
      </trkpt>
      <trkpt lat="59.9743537" lon="17.7329113">
        <ele>28.9769</ele>
        <time>2013-04-10T18:44:40Z</time>
      </trkpt>
      <trkpt lat="59.9743527" lon="17.7329372">
        <ele>28.9769</ele>
        <time>2013-04-10T18:44:41Z</time>
      </trkpt>
      <trkpt lat="59.9743539" lon="17.7329666">
        <ele>28.9769</ele>
        <time>2013-04-10T18:44:42Z</time>
      </trkpt>
      <trkpt lat="59.9743552" lon="17.7329966">
        <ele>28.9769</ele>
        <time>2013-04-10T18:44:43Z</time>
      </trkpt>
      <trkpt lat="59.9743538" lon="17.7330269">
        <ele>28.9769</ele>
        <time>2013-04-10T18:44:44Z</time>
      </trkpt>
      <trkpt lat="59.9743537" lon="17.7330568">
        <ele>28.9769</ele>
        <time>2013-04-10T18:44:45Z</time>
      </trkpt>
      <trkpt lat="59.9743532" lon="17.7330865">
        <ele>28.9769</ele>
        <time>2013-04-10T18:44:46Z</time>
      </trkpt>
      <trkpt lat="59.9743525" lon="17.7331143">
        <ele>29.4575</ele>
        <time>2013-04-10T18:44:47Z</time>
      </trkpt>
      <trkpt lat="59.9743517" lon="17.7331413">
        <ele>29.4575</ele>
        <time>2013-04-10T18:44:48Z</time>
      </trkpt>
      <trkpt lat="59.9743507" lon="17.7331698">
        <ele>29.4575</ele>
        <time>2013-04-10T18:44:49Z</time>
      </trkpt>
      <trkpt lat="59.9743506" lon="17.7331983">
        <ele>29.4575</ele>
        <time>2013-04-10T18:44:50Z</time>
      </trkpt>
      <trkpt lat="59.9743508" lon="17.7332252">
        <ele>29.4575</ele>
        <time>2013-04-10T18:44:51Z</time>
      </trkpt>
      <trkpt lat="59.9743505" lon="17.7332511">
        <ele>29.9381</ele>
        <time>2013-04-10T18:44:52Z</time>
      </trkpt>
      <trkpt lat="59.9743496" lon="17.7332744">
        <ele>29.9381</ele>
        <time>2013-04-10T18:44:53Z</time>
      </trkpt>
      <trkpt lat="59.9743495" lon="17.7332986">
        <ele>30.4188</ele>
        <time>2013-04-10T18:44:54Z</time>
      </trkpt>
      <trkpt lat="59.9743496" lon="17.7333252">
        <ele>30.4188</ele>
        <time>2013-04-10T18:44:55Z</time>
      </trkpt>
      <trkpt lat="59.9743491" lon="17.7333532">
        <ele>30.8995</ele>
        <time>2013-04-10T18:44:56Z</time>
      </trkpt>
      <trkpt lat="59.9743474" lon="17.7333809">
        <ele>30.8995</ele>
        <time>2013-04-10T18:44:57Z</time>
      </trkpt>
      <trkpt lat="59.9743449" lon="17.7334075">
        <ele>30.8995</ele>
        <time>2013-04-10T18:44:58Z</time>
      </trkpt>
      <trkpt lat="59.9743434" lon="17.7334354">
        <ele>30.8995</ele>
        <time>2013-04-10T18:44:59Z</time>
      </trkpt>
      <trkpt lat="59.9743416" lon="17.7334597">
        <ele>31.3801</ele>
        <time>2013-04-10T18:45:00Z</time>
      </trkpt>
      <trkpt lat="59.9743383" lon="17.7334801">
        <ele>31.3801</ele>
        <time>2013-04-10T18:45:01Z</time>
      </trkpt>
      <trkpt lat="59.9743373" lon="17.7335054">
        <ele>31.3801</ele>
        <time>2013-04-10T18:45:02Z</time>
      </trkpt>
      <trkpt lat="59.9743375" lon="17.733535">
        <ele>31.3801</ele>
        <time>2013-04-10T18:45:03Z</time>
      </trkpt>
      <trkpt lat="59.9743376" lon="17.7335635">
        <ele>31.3801</ele>
        <time>2013-04-10T18:45:04Z</time>
      </trkpt>
      <trkpt lat="59.9743373" lon="17.7335931">
        <ele>31.3801</ele>
        <time>2013-04-10T18:45:05Z</time>
      </trkpt>
      <trkpt lat="59.9743376" lon="17.7336215">
        <ele>31.3801</ele>
        <time>2013-04-10T18:45:06Z</time>
      </trkpt>
      <trkpt lat="59.9743376" lon="17.7336495">
        <ele>31.3801</ele>
        <time>2013-04-10T18:45:07Z</time>
      </trkpt>
      <trkpt lat="59.9743376" lon="17.7336774">
        <ele>31.8607</ele>
        <time>2013-04-10T18:45:08Z</time>
      </trkpt>
      <trkpt lat="59.9743377" lon="17.7337059">
        <ele>31.8607</ele>
        <time>2013-04-10T18:45:09Z</time>
      </trkpt>
      <trkpt lat="59.9743367" lon="17.7337317">
        <ele>31.8607</ele>
        <time>2013-04-10T18:45:10Z</time>
      </trkpt>
      <trkpt lat="59.9743355" lon="17.7337572">
        <ele>31.8607</ele>
        <time>2013-04-10T18:45:11Z</time>
      </trkpt>
      <trkpt lat="59.9743342" lon="17.7337858">
        <ele>31.8607</ele>
        <time>2013-04-10T18:45:12Z</time>
      </trkpt>
      <trkpt lat="59.9743326" lon="17.7338153">
        <ele>31.8607</ele>
        <time>2013-04-10T18:45:13Z</time>
      </trkpt>
      <trkpt lat="59.9743314" lon="17.7338422">
        <ele>31.8607</ele>
        <time>2013-04-10T18:45:14Z</time>
      </trkpt>
      <trkpt lat="59.97433" lon="17.7338702">
        <ele>31.8607</ele>
        <time>2013-04-10T18:45:15Z</time>
      </trkpt>
      <trkpt lat="59.9743288" lon="17.7338987">
        <ele>31.8607</ele>
        <time>2013-04-10T18:45:16Z</time>
      </trkpt>
      <trkpt lat="59.9743273" lon="17.7339282">
        <ele>31.8607</ele>
        <time>2013-04-10T18:45:17Z</time>
      </trkpt>
      <trkpt lat="59.9743258" lon="17.7339576">
        <ele>31.8607</ele>
        <time>2013-04-10T18:45:18Z</time>
      </trkpt>
      <trkpt lat="59.9743252" lon="17.733985">
        <ele>31.8607</ele>
        <time>2013-04-10T18:45:19Z</time>
      </trkpt>
      <trkpt lat="59.9743247" lon="17.7340129">
        <ele>31.8607</ele>
        <time>2013-04-10T18:45:20Z</time>
      </trkpt>
      <trkpt lat="59.9743242" lon="17.7340401">
        <ele>31.8607</ele>
        <time>2013-04-10T18:45:21Z</time>
      </trkpt>
      <trkpt lat="59.974322" lon="17.7340678">
        <ele>31.8607</ele>
        <time>2013-04-10T18:45:22Z</time>
      </trkpt>
      <trkpt lat="59.9743188" lon="17.7340944">
        <ele>31.8607</ele>
        <time>2013-04-10T18:45:23Z</time>
      </trkpt>
      <trkpt lat="59.9743158" lon="17.7341222">
        <ele>31.8607</ele>
        <time>2013-04-10T18:45:24Z</time>
      </trkpt>
      <trkpt lat="59.9743133" lon="17.7341487">
        <ele>31.8607</ele>
        <time>2013-04-10T18:45:25Z</time>
      </trkpt>
      <trkpt lat="59.9743111" lon="17.7341727">
        <ele>31.8607</ele>
        <time>2013-04-10T18:45:26Z</time>
      </trkpt>
      <trkpt lat="59.9743101" lon="17.7341979">
        <ele>31.8607</ele>
        <time>2013-04-10T18:45:27Z</time>
      </trkpt>
      <trkpt lat="59.9743102" lon="17.734224">
        <ele>32.3416</ele>
        <time>2013-04-10T18:45:28Z</time>
      </trkpt>
      <trkpt lat="59.9743114" lon="17.7342498">
        <ele>32.3416</ele>
        <time>2013-04-10T18:45:29Z</time>
      </trkpt>
      <trkpt lat="59.9743123" lon="17.7342759">
        <ele>32.3416</ele>
        <time>2013-04-10T18:45:30Z</time>
      </trkpt>
      <trkpt lat="59.9743122" lon="17.7343037">
        <ele>32.3416</ele>
        <time>2013-04-10T18:45:31Z</time>
      </trkpt>
      <trkpt lat="59.9743119" lon="17.7343302">
        <ele>31.8607</ele>
        <time>2013-04-10T18:45:32Z</time>
      </trkpt>
      <trkpt lat="59.9743113" lon="17.7343566">
        <ele>32.3416</ele>
        <time>2013-04-10T18:45:33Z</time>
      </trkpt>
      <trkpt lat="59.9743114" lon="17.7343826">
        <ele>32.3416</ele>
        <time>2013-04-10T18:45:34Z</time>
      </trkpt>
      <trkpt lat="59.9743116" lon="17.7344095">
        <ele>32.3416</ele>
        <time>2013-04-10T18:45:35Z</time>
      </trkpt>
      <trkpt lat="59.9743121" lon="17.7344379">
        <ele>32.3416</ele>
        <time>2013-04-10T18:45:36Z</time>
      </trkpt>
      <trkpt lat="59.9743122" lon="17.7344682">
        <ele>31.8607</ele>
        <time>2013-04-10T18:45:37Z</time>
      </trkpt>
      <trkpt lat="59.9743128" lon="17.7344969">
        <ele>31.8607</ele>
        <time>2013-04-10T18:45:38Z</time>
      </trkpt>
      <trkpt lat="59.9743144" lon="17.734524">
        <ele>31.8607</ele>
        <time>2013-04-10T18:45:39Z</time>
      </trkpt>
      <trkpt lat="59.974315" lon="17.7345501">
        <ele>31.8607</ele>
        <time>2013-04-10T18:45:40Z</time>
      </trkpt>
      <trkpt lat="59.9743154" lon="17.7345749">
        <ele>31.8607</ele>
        <time>2013-04-10T18:45:41Z</time>
      </trkpt>
      <trkpt lat="59.9743169" lon="17.7346016">
        <ele>31.8607</ele>
        <time>2013-04-10T18:45:42Z</time>
      </trkpt>
      <trkpt lat="59.9743192" lon="17.7346288">
        <ele>31.8607</ele>
        <time>2013-04-10T18:45:43Z</time>
      </trkpt>
      <trkpt lat="59.9743217" lon="17.7346564">
        <ele>31.8607</ele>
        <time>2013-04-10T18:45:44Z</time>
      </trkpt>
      <trkpt lat="59.9743236" lon="17.7346845">
        <ele>31.8607</ele>
        <time>2013-04-10T18:45:45Z</time>
      </trkpt>
      <trkpt lat="59.9743263" lon="17.7347104">
        <ele>31.8607</ele>
        <time>2013-04-10T18:45:46Z</time>
      </trkpt>
      <trkpt lat="59.9743299" lon="17.7347348">
        <ele>32.3416</ele>
        <time>2013-04-10T18:45:47Z</time>
      </trkpt>
      <trkpt lat="59.9743329" lon="17.7347622">
        <ele>32.3416</ele>
        <time>2013-04-10T18:45:48Z</time>
      </trkpt>
      <trkpt lat="59.9743367" lon="17.7347897">
        <ele>32.8223</ele>
        <time>2013-04-10T18:45:49Z</time>
      </trkpt>
      <trkpt lat="59.9743413" lon="17.7348154">
        <ele>33.3029</ele>
        <time>2013-04-10T18:45:50Z</time>
      </trkpt>
      <trkpt lat="59.9743418" lon="17.7348445">
        <ele>33.3029</ele>
        <time>2013-04-10T18:45:51Z</time>
      </trkpt>
      <trkpt lat="59.9743411" lon="17.734874">
        <ele>33.3029</ele>
        <time>2013-04-10T18:45:52Z</time>
      </trkpt>
      <trkpt lat="59.9743419" lon="17.7349014">
        <ele>33.7834</ele>
        <time>2013-04-10T18:45:53Z</time>
      </trkpt>
      <trkpt lat="59.9743434" lon="17.7349287">
        <ele>33.7834</ele>
        <time>2013-04-10T18:45:54Z</time>
      </trkpt>
      <trkpt lat="59.9743444" lon="17.7349576">
        <ele>33.7834</ele>
        <time>2013-04-10T18:45:55Z</time>
      </trkpt>
      <trkpt lat="59.9743451" lon="17.7349871">
        <ele>33.7834</ele>
        <time>2013-04-10T18:45:56Z</time>
      </trkpt>
      <trkpt lat="59.974347" lon="17.7350154">
        <ele>33.7834</ele>
        <time>2013-04-10T18:45:57Z</time>
      </trkpt>
      <trkpt lat="59.9743492" lon="17.7350448">
        <ele>34.2642</ele>
        <time>2013-04-10T18:45:58Z</time>
      </trkpt>
      <trkpt lat="59.9743512" lon="17.7350731">
        <ele>34.2642</ele>
        <time>2013-04-10T18:45:59Z</time>
      </trkpt>
      <trkpt lat="59.9743539" lon="17.7351004">
        <ele>34.7449</ele>
        <time>2013-04-10T18:46:00Z</time>
      </trkpt>
      <trkpt lat="59.9743575" lon="17.7351257">
        <ele>34.7449</ele>
        <time>2013-04-10T18:46:01Z</time>
      </trkpt>
      <trkpt lat="59.9743608" lon="17.7351512">
        <ele>34.7449</ele>
        <time>2013-04-10T18:46:02Z</time>
      </trkpt>
      <trkpt lat="59.9743637" lon="17.7351769">
        <ele>34.7449</ele>
        <time>2013-04-10T18:46:03Z</time>
      </trkpt>
      <trkpt lat="59.9743672" lon="17.7352028">
        <ele>34.7449</ele>
        <time>2013-04-10T18:46:04Z</time>
      </trkpt>
      <trkpt lat="59.9743709" lon="17.7352295">
        <ele>34.7449</ele>
        <time>2013-04-10T18:46:05Z</time>
      </trkpt>
      <trkpt lat="59.9743754" lon="17.7352557">
        <ele>34.7449</ele>
        <time>2013-04-10T18:46:06Z</time>
      </trkpt>
      <trkpt lat="59.9743803" lon="17.7352816">
        <ele>35.2255</ele>
        <time>2013-04-10T18:46:07Z</time>
      </trkpt>
      <trkpt lat="59.9743853" lon="17.735308">
        <ele>35.2255</ele>
        <time>2013-04-10T18:46:08Z</time>
      </trkpt>
      <trkpt lat="59.9743891" lon="17.7353341">
        <ele>35.2255</ele>
        <time>2013-04-10T18:46:09Z</time>
      </trkpt>
      <trkpt lat="59.9743931" lon="17.7353593">
        <ele>35.2255</ele>
        <time>2013-04-10T18:46:10Z</time>
      </trkpt>
      <trkpt lat="59.9743968" lon="17.7353843">
        <ele>35.7061</ele>
        <time>2013-04-10T18:46:11Z</time>
      </trkpt>
      <trkpt lat="59.9744012" lon="17.7354091">
        <ele>35.7061</ele>
        <time>2013-04-10T18:46:12Z</time>
      </trkpt>
      <trkpt lat="59.9744065" lon="17.7354354">
        <ele>36.1868</ele>
        <time>2013-04-10T18:46:13Z</time>
      </trkpt>
      <trkpt lat="59.9744114" lon="17.7354635">
        <ele>36.1868</ele>
        <time>2013-04-10T18:46:14Z</time>
      </trkpt>
      <trkpt lat="59.9744159" lon="17.7354916">
        <ele>36.6675</ele>
        <time>2013-04-10T18:46:15Z</time>
      </trkpt>
      <trkpt lat="59.9744195" lon="17.7355191">
        <ele>36.6675</ele>
        <time>2013-04-10T18:46:16Z</time>
      </trkpt>
      <trkpt lat="59.9744222" lon="17.7355468">
        <ele>36.6675</ele>
        <time>2013-04-10T18:46:17Z</time>
      </trkpt>
      <trkpt lat="59.9744261" lon="17.7355744">
        <ele>37.1481</ele>
        <time>2013-04-10T18:46:18Z</time>
      </trkpt>
      <trkpt lat="59.9744297" lon="17.7356025">
        <ele>37.1481</ele>
        <time>2013-04-10T18:46:19Z</time>
      </trkpt>
      <trkpt lat="59.9744328" lon="17.735631">
        <ele>37.1481</ele>
        <time>2013-04-10T18:46:20Z</time>
      </trkpt>
      <trkpt lat="59.9744367" lon="17.7356588">
        <ele>37.1481</ele>
        <time>2013-04-10T18:46:21Z</time>
      </trkpt>
      <trkpt lat="59.9744408" lon="17.7356866">
        <ele>37.1481</ele>
        <time>2013-04-10T18:46:22Z</time>
      </trkpt>
      <trkpt lat="59.9744445" lon="17.7357146">
        <ele>37.1481</ele>
        <time>2013-04-10T18:46:23Z</time>
      </trkpt>
      <trkpt lat="59.974448" lon="17.7357422">
        <ele>37.1481</ele>
        <time>2013-04-10T18:46:24Z</time>
      </trkpt>
      <trkpt lat="59.974453" lon="17.7357685">
        <ele>37.1481</ele>
        <time>2013-04-10T18:46:25Z</time>
      </trkpt>
      <trkpt lat="59.9744593" lon="17.7357935">
        <ele>37.6287</ele>
        <time>2013-04-10T18:46:26Z</time>
      </trkpt>
      <trkpt lat="59.9744656" lon="17.7358184">
        <ele>37.6287</ele>
        <time>2013-04-10T18:46:27Z</time>
      </trkpt>
      <trkpt lat="59.9744723" lon="17.7358442">
        <ele>37.6287</ele>
        <time>2013-04-10T18:46:28Z</time>
      </trkpt>
      <trkpt lat="59.974479" lon="17.7358691">
        <ele>38.1094</ele>
        <time>2013-04-10T18:46:29Z</time>
      </trkpt>
      <trkpt lat="59.9744863" lon="17.735893">
        <ele>38.1094</ele>
        <time>2013-04-10T18:46:30Z</time>
      </trkpt>
      <trkpt lat="59.9744934" lon="17.7359189">
        <ele>38.1094</ele>
        <time>2013-04-10T18:46:31Z</time>
      </trkpt>
      <trkpt lat="59.9744993" lon="17.7359475">
        <ele>38.1094</ele>
        <time>2013-04-10T18:46:32Z</time>
      </trkpt>
      <trkpt lat="59.9745049" lon="17.7359733">
        <ele>38.1094</ele>
        <time>2013-04-10T18:46:33Z</time>
      </trkpt>
      <trkpt lat="59.9745102" lon="17.7359971">
        <ele>38.1094</ele>
        <time>2013-04-10T18:46:34Z</time>
      </trkpt>
      <trkpt lat="59.9745153" lon="17.7360213">
        <ele>38.5901</ele>
        <time>2013-04-10T18:46:35Z</time>
      </trkpt>
      <trkpt lat="59.9745206" lon="17.7360482">
        <ele>38.5901</ele>
        <time>2013-04-10T18:46:36Z</time>
      </trkpt>
      <trkpt lat="59.9745257" lon="17.7360752">
        <ele>38.1094</ele>
        <time>2013-04-10T18:46:37Z</time>
      </trkpt>
      <trkpt lat="59.9745313" lon="17.7361011">
        <ele>38.1094</ele>
        <time>2013-04-10T18:46:38Z</time>
      </trkpt>
      <trkpt lat="59.9745369" lon="17.7361257">
        <ele>38.1094</ele>
        <time>2013-04-10T18:46:39Z</time>
      </trkpt>
      <trkpt lat="59.9745413" lon="17.7361514">
        <ele>38.1094</ele>
        <time>2013-04-10T18:46:40Z</time>
      </trkpt>
      <trkpt lat="59.9745455" lon="17.7361764">
        <ele>38.1094</ele>
        <time>2013-04-10T18:46:41Z</time>
      </trkpt>
      <trkpt lat="59.9745501" lon="17.7362026">
        <ele>37.6287</ele>
        <time>2013-04-10T18:46:42Z</time>
      </trkpt>
      <trkpt lat="59.9745553" lon="17.73623">
        <ele>37.6287</ele>
        <time>2013-04-10T18:46:43Z</time>
      </trkpt>
      <trkpt lat="59.974561" lon="17.7362551">
        <ele>37.6287</ele>
        <time>2013-04-10T18:46:44Z</time>
      </trkpt>
      <trkpt lat="59.9745677" lon="17.7362798">
        <ele>37.6287</ele>
        <time>2013-04-10T18:46:45Z</time>
      </trkpt>
      <trkpt lat="59.974574" lon="17.7363054">
        <ele>37.6287</ele>
        <time>2013-04-10T18:46:46Z</time>
      </trkpt>
      <trkpt lat="59.9745794" lon="17.7363317">
        <ele>37.6287</ele>
        <time>2013-04-10T18:46:47Z</time>
      </trkpt>
      <trkpt lat="59.9745847" lon="17.7363586">
        <ele>37.1481</ele>
        <time>2013-04-10T18:46:48Z</time>
      </trkpt>
      <trkpt lat="59.97459" lon="17.7363856">
        <ele>37.1481</ele>
        <time>2013-04-10T18:46:49Z</time>
      </trkpt>
      <trkpt lat="59.9745957" lon="17.736412">
        <ele>37.1481</ele>
        <time>2013-04-10T18:46:50Z</time>
      </trkpt>
      <trkpt lat="59.9746013" lon="17.7364369">
        <ele>37.1481</ele>
        <time>2013-04-10T18:46:51Z</time>
      </trkpt>
      <trkpt lat="59.9746066" lon="17.7364632">
        <ele>37.1481</ele>
        <time>2013-04-10T18:46:52Z</time>
      </trkpt>
      <trkpt lat="59.9746138" lon="17.7364871">
        <ele>37.1481</ele>
        <time>2013-04-10T18:46:53Z</time>
      </trkpt>
      <trkpt lat="59.9746211" lon="17.7365118">
        <ele>37.1481</ele>
        <time>2013-04-10T18:46:54Z</time>
      </trkpt>
      <trkpt lat="59.9746267" lon="17.7365358">
        <ele>37.1481</ele>
        <time>2013-04-10T18:46:55Z</time>
      </trkpt>
      <trkpt lat="59.9746331" lon="17.7365608">
        <ele>37.1481</ele>
        <time>2013-04-10T18:46:56Z</time>
      </trkpt>
      <trkpt lat="59.9746397" lon="17.7365876">
        <ele>36.6675</ele>
        <time>2013-04-10T18:46:57Z</time>
      </trkpt>
      <trkpt lat="59.9746463" lon="17.7366129">
        <ele>36.6675</ele>
        <time>2013-04-10T18:46:58Z</time>
      </trkpt>
      <trkpt lat="59.9746532" lon="17.7366397">
        <ele>36.6675</ele>
        <time>2013-04-10T18:46:59Z</time>
      </trkpt>
      <trkpt lat="59.9746599" lon="17.7366652">
        <ele>36.1868</ele>
        <time>2013-04-10T18:47:00Z</time>
      </trkpt>
      <trkpt lat="59.9746672" lon="17.7366907">
        <ele>36.1868</ele>
        <time>2013-04-10T18:47:01Z</time>
      </trkpt>
      <trkpt lat="59.9746745" lon="17.7367165">
        <ele>36.1868</ele>
        <time>2013-04-10T18:47:02Z</time>
      </trkpt>
      <trkpt lat="59.9746821" lon="17.7367415">
        <ele>36.1868</ele>
        <time>2013-04-10T18:47:03Z</time>
      </trkpt>
      <trkpt lat="59.97469" lon="17.7367658">
        <ele>36.1868</ele>
        <time>2013-04-10T18:47:04Z</time>
      </trkpt>
      <trkpt lat="59.9746987" lon="17.7367891">
        <ele>36.1868</ele>
        <time>2013-04-10T18:47:05Z</time>
      </trkpt>
      <trkpt lat="59.9747058" lon="17.7368128">
        <ele>36.1868</ele>
        <time>2013-04-10T18:47:06Z</time>
      </trkpt>
      <trkpt lat="59.9747122" lon="17.7368356">
        <ele>36.1868</ele>
        <time>2013-04-10T18:47:07Z</time>
      </trkpt>
      <trkpt lat="59.97472" lon="17.7368583">
        <ele>35.7061</ele>
        <time>2013-04-10T18:47:08Z</time>
      </trkpt>
      <trkpt lat="59.9747298" lon="17.7368804">
        <ele>35.7061</ele>
        <time>2013-04-10T18:47:09Z</time>
      </trkpt>
      <trkpt lat="59.9747392" lon="17.7369021">
        <ele>35.2255</ele>
        <time>2013-04-10T18:47:10Z</time>
      </trkpt>
      <trkpt lat="59.9747474" lon="17.7369254">
        <ele>34.7449</ele>
        <time>2013-04-10T18:47:11Z</time>
      </trkpt>
      <trkpt lat="59.9747551" lon="17.7369483">
        <ele>34.7449</ele>
        <time>2013-04-10T18:47:12Z</time>
      </trkpt>
      <trkpt lat="59.9747625" lon="17.7369705">
        <ele>34.2642</ele>
        <time>2013-04-10T18:47:13Z</time>
      </trkpt>
      <trkpt lat="59.9747708" lon="17.7369936">
        <ele>34.2642</ele>
        <time>2013-04-10T18:47:14Z</time>
      </trkpt>
      <trkpt lat="59.9747781" lon="17.7370177">
        <ele>34.2642</ele>
        <time>2013-04-10T18:47:15Z</time>
      </trkpt>
      <trkpt lat="59.9747861" lon="17.7370404">
        <ele>34.2642</ele>
        <time>2013-04-10T18:47:16Z</time>
      </trkpt>
      <trkpt lat="59.9747946" lon="17.7370632">
        <ele>34.2642</ele>
        <time>2013-04-10T18:47:17Z</time>
      </trkpt>
      <trkpt lat="59.9748028" lon="17.7370865">
        <ele>34.2642</ele>
        <time>2013-04-10T18:47:18Z</time>
      </trkpt>
      <trkpt lat="59.974811" lon="17.7371087">
        <ele>34.2642</ele>
        <time>2013-04-10T18:47:19Z</time>
      </trkpt>
      <trkpt lat="59.9748195" lon="17.7371295">
        <ele>34.2642</ele>
        <time>2013-04-10T18:47:20Z</time>
      </trkpt>
      <trkpt lat="59.9748275" lon="17.7371498">
        <ele>34.2642</ele>
        <time>2013-04-10T18:47:21Z</time>
      </trkpt>
      <trkpt lat="59.9748356" lon="17.7371703">
        <ele>34.2642</ele>
        <time>2013-04-10T18:47:22Z</time>
      </trkpt>
      <trkpt lat="59.9748443" lon="17.7371906">
        <ele>34.2642</ele>
        <time>2013-04-10T18:47:23Z</time>
      </trkpt>
      <trkpt lat="59.9748532" lon="17.7372121">
        <ele>34.2642</ele>
        <time>2013-04-10T18:47:24Z</time>
      </trkpt>
      <trkpt lat="59.9748624" lon="17.7372326">
        <ele>34.2642</ele>
        <time>2013-04-10T18:47:25Z</time>
      </trkpt>
      <trkpt lat="59.9748722" lon="17.7372531">
        <ele>34.2642</ele>
        <time>2013-04-10T18:47:26Z</time>
      </trkpt>
      <trkpt lat="59.9748814" lon="17.7372729">
        <ele>34.2642</ele>
        <time>2013-04-10T18:47:27Z</time>
      </trkpt>
      <trkpt lat="59.9748905" lon="17.7372935">
        <ele>34.2642</ele>
        <time>2013-04-10T18:47:28Z</time>
      </trkpt>
      <trkpt lat="59.9749" lon="17.7373149">
        <ele>34.2642</ele>
        <time>2013-04-10T18:47:29Z</time>
      </trkpt>
      <trkpt lat="59.9749091" lon="17.737336">
        <ele>34.2642</ele>
        <time>2013-04-10T18:47:30Z</time>
      </trkpt>
      <trkpt lat="59.9749178" lon="17.7373573">
        <ele>34.2642</ele>
        <time>2013-04-10T18:47:31Z</time>
      </trkpt>
      <trkpt lat="59.9749261" lon="17.7373791">
        <ele>34.2642</ele>
        <time>2013-04-10T18:47:32Z</time>
      </trkpt>
      <trkpt lat="59.9749356" lon="17.7373989">
        <ele>34.7449</ele>
        <time>2013-04-10T18:47:33Z</time>
      </trkpt>
      <trkpt lat="59.9749462" lon="17.737418">
        <ele>34.7449</ele>
        <time>2013-04-10T18:47:34Z</time>
      </trkpt>
      <trkpt lat="59.9749565" lon="17.7374386">
        <ele>34.7449</ele>
        <time>2013-04-10T18:47:35Z</time>
      </trkpt>
      <trkpt lat="59.9749656" lon="17.7374604">
        <ele>34.7449</ele>
        <time>2013-04-10T18:47:36Z</time>
      </trkpt>
      <trkpt lat="59.9749743" lon="17.7374817">
        <ele>34.7449</ele>
        <time>2013-04-10T18:47:37Z</time>
      </trkpt>
      <trkpt lat="59.9749834" lon="17.7375017">
        <ele>34.2642</ele>
        <time>2013-04-10T18:47:38Z</time>
      </trkpt>
      <trkpt lat="59.9749939" lon="17.7375211">
        <ele>34.2642</ele>
        <time>2013-04-10T18:47:39Z</time>
      </trkpt>
      <trkpt lat="59.9750032" lon="17.7375406">
        <ele>34.2642</ele>
        <time>2013-04-10T18:47:40Z</time>
      </trkpt>
      <trkpt lat="59.9750125" lon="17.7375602">
        <ele>34.2642</ele>
        <time>2013-04-10T18:47:41Z</time>
      </trkpt>
      <trkpt lat="59.9750221" lon="17.7375789">
        <ele>34.7449</ele>
        <time>2013-04-10T18:47:42Z</time>
      </trkpt>
      <trkpt lat="59.9750318" lon="17.7375972">
        <ele>34.7449</ele>
        <time>2013-04-10T18:47:43Z</time>
      </trkpt>
      <trkpt lat="59.9750421" lon="17.7376153">
        <ele>34.7449</ele>
        <time>2013-04-10T18:47:44Z</time>
      </trkpt>
      <trkpt lat="59.9750525" lon="17.7376325">
        <ele>34.7449</ele>
        <time>2013-04-10T18:47:45Z</time>
      </trkpt>
      <trkpt lat="59.9750635" lon="17.7376495">
        <ele>34.7449</ele>
        <time>2013-04-10T18:47:46Z</time>
      </trkpt>
      <trkpt lat="59.9750754" lon="17.7376664">
        <ele>34.7449</ele>
        <time>2013-04-10T18:47:47Z</time>
      </trkpt>
      <trkpt lat="59.9750871" lon="17.7376837">
        <ele>34.7449</ele>
        <time>2013-04-10T18:47:48Z</time>
      </trkpt>
      <trkpt lat="59.9750974" lon="17.7376994">
        <ele>35.2255</ele>
        <time>2013-04-10T18:47:49Z</time>
      </trkpt>
      <trkpt lat="59.9751073" lon="17.7377167">
        <ele>35.2255</ele>
        <time>2013-04-10T18:47:50Z</time>
      </trkpt>
      <trkpt lat="59.9751172" lon="17.7377355">
        <ele>35.2255</ele>
        <time>2013-04-10T18:47:51Z</time>
      </trkpt>
      <trkpt lat="59.9751271" lon="17.7377546">
        <ele>35.2255</ele>
        <time>2013-04-10T18:47:52Z</time>
      </trkpt>
      <trkpt lat="59.9751368" lon="17.7377757">
        <ele>35.2255</ele>
        <time>2013-04-10T18:47:53Z</time>
      </trkpt>
      <trkpt lat="59.9751489" lon="17.7377941">
        <ele>35.2255</ele>
        <time>2013-04-10T18:47:54Z</time>
      </trkpt>
      <trkpt lat="59.9751625" lon="17.7378091">
        <ele>35.2255</ele>
        <time>2013-04-10T18:47:55Z</time>
      </trkpt>
      <trkpt lat="59.9751733" lon="17.7378268">
        <ele>35.2255</ele>
        <time>2013-04-10T18:47:56Z</time>
      </trkpt>
      <trkpt lat="59.9751839" lon="17.7378448">
        <ele>35.2255</ele>
        <time>2013-04-10T18:47:57Z</time>
      </trkpt>
      <trkpt lat="59.9751945" lon="17.7378623">
        <ele>35.7061</ele>
        <time>2013-04-10T18:47:58Z</time>
      </trkpt>
      <trkpt lat="59.9752054" lon="17.7378807">
        <ele>35.7061</ele>
        <time>2013-04-10T18:47:59Z</time>
      </trkpt>
      <trkpt lat="59.9752157" lon="17.7379009">
        <ele>35.7061</ele>
        <time>2013-04-10T18:48:00Z</time>
      </trkpt>
      <trkpt lat="59.9752264" lon="17.737921">
        <ele>36.1868</ele>
        <time>2013-04-10T18:48:01Z</time>
      </trkpt>
      <trkpt lat="59.9752368" lon="17.7379412">
        <ele>36.1868</ele>
        <time>2013-04-10T18:48:02Z</time>
      </trkpt>
      <trkpt lat="59.9752473" lon="17.7379601">
        <ele>36.1868</ele>
        <time>2013-04-10T18:48:03Z</time>
      </trkpt>
      <trkpt lat="59.975258" lon="17.7379785">
        <ele>36.1868</ele>
        <time>2013-04-10T18:48:04Z</time>
      </trkpt>
      <trkpt lat="59.975269" lon="17.7379959">
        <ele>36.1868</ele>
        <time>2013-04-10T18:48:05Z</time>
      </trkpt>
      <trkpt lat="59.97528" lon="17.7380126">
        <ele>36.1868</ele>
        <time>2013-04-10T18:48:06Z</time>
      </trkpt>
      <trkpt lat="59.9752893" lon="17.7380292">
        <ele>36.1868</ele>
        <time>2013-04-10T18:48:07Z</time>
      </trkpt>
      <trkpt lat="59.975298" lon="17.7380448">
        <ele>36.1868</ele>
        <time>2013-04-10T18:48:08Z</time>
      </trkpt>
      <trkpt lat="59.9753073" lon="17.7380598">
        <ele>35.7061</ele>
        <time>2013-04-10T18:48:09Z</time>
      </trkpt>
      <trkpt lat="59.9753162" lon="17.7380764">
        <ele>35.7061</ele>
        <time>2013-04-10T18:48:10Z</time>
      </trkpt>
      <trkpt lat="59.9753254" lon="17.738094">
        <ele>35.2255</ele>
        <time>2013-04-10T18:48:11Z</time>
      </trkpt>
      <trkpt lat="59.9753344" lon="17.7381138">
        <ele>35.7061</ele>
        <time>2013-04-10T18:48:12Z</time>
      </trkpt>
      <trkpt lat="59.9753459" lon="17.7381313">
        <ele>35.2255</ele>
        <time>2013-04-10T18:48:13Z</time>
      </trkpt>
      <trkpt lat="59.975358" lon="17.7381478">
        <ele>35.2255</ele>
        <time>2013-04-10T18:48:14Z</time>
      </trkpt>
      <trkpt lat="59.9753661" lon="17.7381705">
        <ele>34.7449</ele>
        <time>2013-04-10T18:48:15Z</time>
      </trkpt>
      <trkpt lat="59.975374" lon="17.738193">
        <ele>34.2642</ele>
        <time>2013-04-10T18:48:16Z</time>
      </trkpt>
      <trkpt lat="59.9753825" lon="17.7382132">
        <ele>34.2642</ele>
        <time>2013-04-10T18:48:17Z</time>
      </trkpt>
      <trkpt lat="59.9753904" lon="17.7382297">
        <ele>34.2642</ele>
        <time>2013-04-10T18:48:18Z</time>
      </trkpt>
      <trkpt lat="59.9754007" lon="17.7382471">
        <ele>33.7834</ele>
        <time>2013-04-10T18:48:19Z</time>
      </trkpt>
      <trkpt lat="59.975411" lon="17.7382669">
        <ele>34.2642</ele>
        <time>2013-04-10T18:48:20Z</time>
      </trkpt>
      <trkpt lat="59.9754201" lon="17.7382862">
        <ele>34.2642</ele>
        <time>2013-04-10T18:48:21Z</time>
      </trkpt>
      <trkpt lat="59.9754305" lon="17.7383033">
        <ele>34.2642</ele>
        <time>2013-04-10T18:48:22Z</time>
      </trkpt>
      <trkpt lat="59.9754404" lon="17.7383207">
        <ele>33.7834</ele>
        <time>2013-04-10T18:48:23Z</time>
      </trkpt>
      <trkpt lat="59.9754504" lon="17.738339">
        <ele>33.7834</ele>
        <time>2013-04-10T18:48:24Z</time>
      </trkpt>
      <trkpt lat="59.9754602" lon="17.7383569">
        <ele>34.2642</ele>
        <time>2013-04-10T18:48:25Z</time>
      </trkpt>
      <trkpt lat="59.9754707" lon="17.7383745">
        <ele>34.2642</ele>
        <time>2013-04-10T18:48:26Z</time>
      </trkpt>
      <trkpt lat="59.9754811" lon="17.7383918">
        <ele>34.2642</ele>
        <time>2013-04-10T18:48:27Z</time>
      </trkpt>
      <trkpt lat="59.9754913" lon="17.738408">
        <ele>34.2642</ele>
        <time>2013-04-10T18:48:28Z</time>
      </trkpt>
      <trkpt lat="59.9755015" lon="17.7384259">
        <ele>34.7449</ele>
        <time>2013-04-10T18:48:29Z</time>
      </trkpt>
      <trkpt lat="59.9755116" lon="17.7384447">
        <ele>34.7449</ele>
        <time>2013-04-10T18:48:30Z</time>
      </trkpt>
      <trkpt lat="59.9755218" lon="17.7384633">
        <ele>34.7449</ele>
        <time>2013-04-10T18:48:31Z</time>
      </trkpt>
      <trkpt lat="59.9755307" lon="17.7384846">
        <ele>34.7449</ele>
        <time>2013-04-10T18:48:32Z</time>
      </trkpt>
      <trkpt lat="59.9755398" lon="17.7385077">
        <ele>34.7449</ele>
        <time>2013-04-10T18:48:33Z</time>
      </trkpt>
      <trkpt lat="59.9755498" lon="17.738527">
        <ele>34.7449</ele>
        <time>2013-04-10T18:48:34Z</time>
      </trkpt>
      <trkpt lat="59.9755616" lon="17.7385417">
        <ele>34.2642</ele>
        <time>2013-04-10T18:48:35Z</time>
      </trkpt>
      <trkpt lat="59.9755716" lon="17.738556">
        <ele>34.2642</ele>
        <time>2013-04-10T18:48:36Z</time>
      </trkpt>
      <trkpt lat="59.9755814" lon="17.7385752">
        <ele>34.2642</ele>
        <time>2013-04-10T18:48:37Z</time>
      </trkpt>
      <trkpt lat="59.9755923" lon="17.7385954">
        <ele>33.7834</ele>
        <time>2013-04-10T18:48:38Z</time>
      </trkpt>
      <trkpt lat="59.9756059" lon="17.7386176">
        <ele>34.2642</ele>
        <time>2013-04-10T18:48:39Z</time>
      </trkpt>
      <trkpt lat="59.9756192" lon="17.738641">
        <ele>34.2642</ele>
        <time>2013-04-10T18:48:40Z</time>
      </trkpt>
      <trkpt lat="59.9756296" lon="17.7386602">
        <ele>33.7834</ele>
        <time>2013-04-10T18:48:41Z</time>
      </trkpt>
      <trkpt lat="59.9756405" lon="17.7386783">
        <ele>34.2642</ele>
        <time>2013-04-10T18:48:42Z</time>
      </trkpt>
      <trkpt lat="59.9756519" lon="17.7386985">
        <ele>34.2642</ele>
        <time>2013-04-10T18:48:43Z</time>
      </trkpt>
      <trkpt lat="59.9756623" lon="17.7387176">
        <ele>34.2642</ele>
        <time>2013-04-10T18:48:44Z</time>
      </trkpt>
      <trkpt lat="59.9756724" lon="17.7387368">
        <ele>34.2642</ele>
        <time>2013-04-10T18:48:45Z</time>
      </trkpt>
      <trkpt lat="59.9756822" lon="17.7387571">
        <ele>34.2642</ele>
        <time>2013-04-10T18:48:46Z</time>
      </trkpt>
      <trkpt lat="59.9756918" lon="17.7387752">
        <ele>34.2642</ele>
        <time>2013-04-10T18:48:47Z</time>
      </trkpt>
      <trkpt lat="59.9757019" lon="17.7387945">
        <ele>34.2642</ele>
        <time>2013-04-10T18:48:48Z</time>
      </trkpt>
      <trkpt lat="59.9757125" lon="17.7388138">
        <ele>34.2642</ele>
        <time>2013-04-10T18:48:49Z</time>
      </trkpt>
      <trkpt lat="59.9757233" lon="17.7388322">
        <ele>34.7449</ele>
        <time>2013-04-10T18:48:50Z</time>
      </trkpt>
      <trkpt lat="59.9757348" lon="17.7388499">
        <ele>35.2255</ele>
        <time>2013-04-10T18:48:51Z</time>
      </trkpt>
      <trkpt lat="59.9757458" lon="17.7388684">
        <ele>35.2255</ele>
        <time>2013-04-10T18:48:52Z</time>
      </trkpt>
      <trkpt lat="59.9757572" lon="17.7388881">
        <ele>35.2255</ele>
        <time>2013-04-10T18:48:53Z</time>
      </trkpt>
      <trkpt lat="59.9757682" lon="17.7389062">
        <ele>34.7449</ele>
        <time>2013-04-10T18:48:54Z</time>
      </trkpt>
      <trkpt lat="59.9757783" lon="17.7389229">
        <ele>35.2255</ele>
        <time>2013-04-10T18:48:55Z</time>
      </trkpt>
      <trkpt lat="59.9757912" lon="17.7389405">
        <ele>35.7061</ele>
        <time>2013-04-10T18:48:56Z</time>
      </trkpt>
      <trkpt lat="59.9758037" lon="17.7389566">
        <ele>35.7061</ele>
        <time>2013-04-10T18:48:57Z</time>
      </trkpt>
      <trkpt lat="59.975816" lon="17.7389736">
        <ele>36.1868</ele>
        <time>2013-04-10T18:48:58Z</time>
      </trkpt>
      <trkpt lat="59.9758285" lon="17.7389902">
        <ele>36.1868</ele>
        <time>2013-04-10T18:48:59Z</time>
      </trkpt>
      <trkpt lat="59.9758413" lon="17.739007">
        <ele>36.6675</ele>
        <time>2013-04-10T18:49:00Z</time>
      </trkpt>
      <trkpt lat="59.9758544" lon="17.7390238">
        <ele>37.1481</ele>
        <time>2013-04-10T18:49:01Z</time>
      </trkpt>
      <trkpt lat="59.9758665" lon="17.7390409">
        <ele>37.1481</ele>
        <time>2013-04-10T18:49:02Z</time>
      </trkpt>
      <trkpt lat="59.9758798" lon="17.7390566">
        <ele>37.6287</ele>
        <time>2013-04-10T18:49:03Z</time>
      </trkpt>
      <trkpt lat="59.9758922" lon="17.7390741">
        <ele>37.6287</ele>
        <time>2013-04-10T18:49:04Z</time>
      </trkpt>
      <trkpt lat="59.9759043" lon="17.7390928">
        <ele>38.1094</ele>
        <time>2013-04-10T18:49:05Z</time>
      </trkpt>
      <trkpt lat="59.975917" lon="17.7391104">
        <ele>38.1094</ele>
        <time>2013-04-10T18:49:06Z</time>
      </trkpt>
      <trkpt lat="59.9759299" lon="17.7391268">
        <ele>38.1094</ele>
        <time>2013-04-10T18:49:07Z</time>
      </trkpt>
      <trkpt lat="59.9759429" lon="17.739146">
        <ele>38.5901</ele>
        <time>2013-04-10T18:49:08Z</time>
      </trkpt>
      <trkpt lat="59.9759555" lon="17.7391668">
        <ele>38.5901</ele>
        <time>2013-04-10T18:49:09Z</time>
      </trkpt>
      <trkpt lat="59.9759668" lon="17.7391849">
        <ele>38.5901</ele>
        <time>2013-04-10T18:49:10Z</time>
      </trkpt>
      <trkpt lat="59.9759777" lon="17.7392023">
        <ele>38.5901</ele>
        <time>2013-04-10T18:49:11Z</time>
      </trkpt>
      <trkpt lat="59.9759892" lon="17.7392205">
        <ele>39.0707</ele>
        <time>2013-04-10T18:49:12Z</time>
      </trkpt>
      <trkpt lat="59.9760017" lon="17.7392393">
        <ele>39.5513</ele>
        <time>2013-04-10T18:49:13Z</time>
      </trkpt>
      <trkpt lat="59.9760145" lon="17.7392568">
        <ele>40.0321</ele>
        <time>2013-04-10T18:49:14Z</time>
      </trkpt>
      <trkpt lat="59.9760259" lon="17.7392725">
        <ele>40.0321</ele>
        <time>2013-04-10T18:49:15Z</time>
      </trkpt>
      <trkpt lat="59.9760361" lon="17.7392885">
        <ele>40.0321</ele>
        <time>2013-04-10T18:49:16Z</time>
      </trkpt>
      <trkpt lat="59.9760462" lon="17.7393061">
        <ele>40.5128</ele>
        <time>2013-04-10T18:49:17Z</time>
      </trkpt>
      <trkpt lat="59.976056" lon="17.7393263">
        <ele>40.5128</ele>
        <time>2013-04-10T18:49:18Z</time>
      </trkpt>
      <trkpt lat="59.9760658" lon="17.7393471">
        <ele>40.9934</ele>
        <time>2013-04-10T18:49:19Z</time>
      </trkpt>
      <trkpt lat="59.9760766" lon="17.7393677">
        <ele>40.9934</ele>
        <time>2013-04-10T18:49:20Z</time>
      </trkpt>
      <trkpt lat="59.9760879" lon="17.7393891">
        <ele>41.474</ele>
        <time>2013-04-10T18:49:21Z</time>
      </trkpt>
      <trkpt lat="59.9760995" lon="17.7394092">
        <ele>41.474</ele>
        <time>2013-04-10T18:49:22Z</time>
      </trkpt>
      <trkpt lat="59.9761108" lon="17.7394288">
        <ele>41.9547</ele>
        <time>2013-04-10T18:49:23Z</time>
      </trkpt>
      <trkpt lat="59.9761207" lon="17.7394476">
        <ele>42.4354</ele>
        <time>2013-04-10T18:49:24Z</time>
      </trkpt>
      <trkpt lat="59.9761315" lon="17.7394642">
        <ele>42.916</ele>
        <time>2013-04-10T18:49:25Z</time>
      </trkpt>
      <trkpt lat="59.9761443" lon="17.7394843">
        <ele>43.3966</ele>
        <time>2013-04-10T18:49:26Z</time>
      </trkpt>
      <trkpt lat="59.9761571" lon="17.739504">
        <ele>43.8773</ele>
        <time>2013-04-10T18:49:27Z</time>
      </trkpt>
      <trkpt lat="59.9761683" lon="17.7395221">
        <ele>44.358</ele>
        <time>2013-04-10T18:49:28Z</time>
      </trkpt>
      <trkpt lat="59.9761792" lon="17.739539">
        <ele>44.358</ele>
        <time>2013-04-10T18:49:29Z</time>
      </trkpt>
      <trkpt lat="59.97619" lon="17.7395542">
        <ele>44.8386</ele>
        <time>2013-04-10T18:49:30Z</time>
      </trkpt>
      <trkpt lat="59.976201" lon="17.7395703">
        <ele>45.3192</ele>
        <time>2013-04-10T18:49:31Z</time>
      </trkpt>
      <trkpt lat="59.9762119" lon="17.7395879">
        <ele>45.3192</ele>
        <time>2013-04-10T18:49:32Z</time>
      </trkpt>
      <trkpt lat="59.9762238" lon="17.7396066">
        <ele>45.3192</ele>
        <time>2013-04-10T18:49:33Z</time>
      </trkpt>
      <trkpt lat="59.9762357" lon="17.7396246">
        <ele>45.7999</ele>
        <time>2013-04-10T18:49:34Z</time>
      </trkpt>
      <trkpt lat="59.9762471" lon="17.7396424">
        <ele>45.7999</ele>
        <time>2013-04-10T18:49:35Z</time>
      </trkpt>
      <trkpt lat="59.9762594" lon="17.7396609">
        <ele>46.2806</ele>
        <time>2013-04-10T18:49:36Z</time>
      </trkpt>
      <trkpt lat="59.9762718" lon="17.7396791">
        <ele>46.2806</ele>
        <time>2013-04-10T18:49:37Z</time>
      </trkpt>
      <trkpt lat="59.9762842" lon="17.7396946">
        <ele>46.7612</ele>
        <time>2013-04-10T18:49:38Z</time>
      </trkpt>
      <trkpt lat="59.9762966" lon="17.739706">
        <ele>46.7612</ele>
        <time>2013-04-10T18:49:39Z</time>
      </trkpt>
      <trkpt lat="59.9763087" lon="17.7397148">
        <ele>46.2806</ele>
        <time>2013-04-10T18:49:40Z</time>
      </trkpt>
      <trkpt lat="59.9763201" lon="17.7397205">
        <ele>46.2806</ele>
        <time>2013-04-10T18:49:41Z</time>
      </trkpt>
      <trkpt lat="59.9763315" lon="17.7397242">
        <ele>46.2806</ele>
        <time>2013-04-10T18:49:42Z</time>
      </trkpt>
      <trkpt lat="59.9763429" lon="17.7397272">
        <ele>45.7999</ele>
        <time>2013-04-10T18:49:43Z</time>
      </trkpt>
      <trkpt lat="59.9763549" lon="17.7397284">
        <ele>45.7999</ele>
        <time>2013-04-10T18:49:44Z</time>
      </trkpt>
      <trkpt lat="59.9763678" lon="17.7397276">
        <ele>45.3192</ele>
        <time>2013-04-10T18:49:45Z</time>
      </trkpt>
      <trkpt lat="59.9763803" lon="17.7397247">
        <ele>45.3192</ele>
        <time>2013-04-10T18:49:46Z</time>
      </trkpt>
      <trkpt lat="59.9763906" lon="17.7397174">
        <ele>44.8386</ele>
        <time>2013-04-10T18:49:47Z</time>
      </trkpt>
      <trkpt lat="59.9764009" lon="17.7397039">
        <ele>44.358</ele>
        <time>2013-04-10T18:49:48Z</time>
      </trkpt>
      <trkpt lat="59.9764109" lon="17.7396884">
        <ele>43.3966</ele>
        <time>2013-04-10T18:49:49Z</time>
      </trkpt>
      <trkpt lat="59.9764206" lon="17.7396716">
        <ele>42.916</ele>
        <time>2013-04-10T18:49:50Z</time>
      </trkpt>
      <trkpt lat="59.9764301" lon="17.7396558">
        <ele>42.4354</ele>
        <time>2013-04-10T18:49:51Z</time>
      </trkpt>
      <trkpt lat="59.9764406" lon="17.7396407">
        <ele>41.9547</ele>
        <time>2013-04-10T18:49:52Z</time>
      </trkpt>
      <trkpt lat="59.9764512" lon="17.7396227">
        <ele>41.474</ele>
        <time>2013-04-10T18:49:53Z</time>
      </trkpt>
      <trkpt lat="59.9764606" lon="17.7396027">
        <ele>40.9934</ele>
        <time>2013-04-10T18:49:54Z</time>
      </trkpt>
      <trkpt lat="59.9764697" lon="17.7395815">
        <ele>40.5128</ele>
        <time>2013-04-10T18:49:55Z</time>
      </trkpt>
      <trkpt lat="59.9764792" lon="17.7395641">
        <ele>40.0321</ele>
        <time>2013-04-10T18:49:56Z</time>
      </trkpt>
      <trkpt lat="59.9764899" lon="17.7395473">
        <ele>40.0321</ele>
        <time>2013-04-10T18:49:57Z</time>
      </trkpt>
      <trkpt lat="59.9765035" lon="17.7395333">
        <ele>39.5513</ele>
        <time>2013-04-10T18:49:58Z</time>
      </trkpt>
      <trkpt lat="59.9765181" lon="17.7395207">
        <ele>39.0707</ele>
        <time>2013-04-10T18:49:59Z</time>
      </trkpt>
      <trkpt lat="59.97653" lon="17.7395091">
        <ele>39.0707</ele>
        <time>2013-04-10T18:50:00Z</time>
      </trkpt>
      <trkpt lat="59.9765414" lon="17.7394947">
        <ele>38.5901</ele>
        <time>2013-04-10T18:50:01Z</time>
      </trkpt>
      <trkpt lat="59.9765518" lon="17.7394764">
        <ele>38.5901</ele>
        <time>2013-04-10T18:50:02Z</time>
      </trkpt>
      <trkpt lat="59.976564" lon="17.7394652">
        <ele>38.5901</ele>
        <time>2013-04-10T18:50:03Z</time>
      </trkpt>
      <trkpt lat="59.9765766" lon="17.7394569">
        <ele>38.1094</ele>
        <time>2013-04-10T18:50:04Z</time>
      </trkpt>
      <trkpt lat="59.9765893" lon="17.7394468">
        <ele>37.6287</ele>
        <time>2013-04-10T18:50:05Z</time>
      </trkpt>
      <trkpt lat="59.9766009" lon="17.7394367">
        <ele>37.1481</ele>
        <time>2013-04-10T18:50:06Z</time>
      </trkpt>
      <trkpt lat="59.9766136" lon="17.7394283">
        <ele>37.1481</ele>
        <time>2013-04-10T18:50:07Z</time>
      </trkpt>
      <trkpt lat="59.9766253" lon="17.7394195">
        <ele>36.6675</ele>
        <time>2013-04-10T18:50:08Z</time>
      </trkpt>
      <trkpt lat="59.9766375" lon="17.7394109">
        <ele>36.6675</ele>
        <time>2013-04-10T18:50:09Z</time>
      </trkpt>
      <trkpt lat="59.9766492" lon="17.7394034">
        <ele>36.1868</ele>
        <time>2013-04-10T18:50:10Z</time>
      </trkpt>
      <trkpt lat="59.9766611" lon="17.7393943">
        <ele>35.7061</ele>
        <time>2013-04-10T18:50:11Z</time>
      </trkpt>
      <trkpt lat="59.9766737" lon="17.7393869">
        <ele>35.7061</ele>
        <time>2013-04-10T18:50:12Z</time>
      </trkpt>
      <trkpt lat="59.9766869" lon="17.7393821">
        <ele>35.2255</ele>
        <time>2013-04-10T18:50:13Z</time>
      </trkpt>
      <trkpt lat="59.9766993" lon="17.7393798">
        <ele>34.7449</ele>
        <time>2013-04-10T18:50:14Z</time>
      </trkpt>
      <trkpt lat="59.9767128" lon="17.7393772">
        <ele>34.7449</ele>
        <time>2013-04-10T18:50:15Z</time>
      </trkpt>
      <trkpt lat="59.9767236" lon="17.7393698">
        <ele>34.2642</ele>
        <time>2013-04-10T18:50:16Z</time>
      </trkpt>
      <trkpt lat="59.9767341" lon="17.7393579">
        <ele>33.7834</ele>
        <time>2013-04-10T18:50:17Z</time>
      </trkpt>
      <trkpt lat="59.9767478" lon="17.7393518">
        <ele>33.7834</ele>
        <time>2013-04-10T18:50:18Z</time>
      </trkpt>
      <trkpt lat="59.9767619" lon="17.7393454">
        <ele>33.7834</ele>
        <time>2013-04-10T18:50:19Z</time>
      </trkpt>
      <trkpt lat="59.9767748" lon="17.7393363">
        <ele>33.7834</ele>
        <time>2013-04-10T18:50:20Z</time>
      </trkpt>
      <trkpt lat="59.9767873" lon="17.7393285">
        <ele>33.7834</ele>
        <time>2013-04-10T18:50:21Z</time>
      </trkpt>
      <trkpt lat="59.9768008" lon="17.739323">
        <ele>33.7834</ele>
        <time>2013-04-10T18:50:22Z</time>
      </trkpt>
      <trkpt lat="59.9768157" lon="17.7393165">
        <ele>33.7834</ele>
        <time>2013-04-10T18:50:23Z</time>
      </trkpt>
      <trkpt lat="59.9768292" lon="17.7393122">
        <ele>33.7834</ele>
        <time>2013-04-10T18:50:24Z</time>
      </trkpt>
      <trkpt lat="59.9768419" lon="17.7393103">
        <ele>33.7834</ele>
        <time>2013-04-10T18:50:25Z</time>
      </trkpt>
      <trkpt lat="59.9768537" lon="17.7393098">
        <ele>33.7834</ele>
        <time>2013-04-10T18:50:26Z</time>
      </trkpt>
      <trkpt lat="59.9768654" lon="17.739308">
        <ele>33.7834</ele>
        <time>2013-04-10T18:50:27Z</time>
      </trkpt>
      <trkpt lat="59.9768781" lon="17.7393075">
        <ele>33.7834</ele>
        <time>2013-04-10T18:50:28Z</time>
      </trkpt>
      <trkpt lat="59.9768906" lon="17.7393094">
        <ele>33.3029</ele>
        <time>2013-04-10T18:50:29Z</time>
      </trkpt>
      <trkpt lat="59.9769034" lon="17.7393124">
        <ele>33.3029</ele>
        <time>2013-04-10T18:50:30Z</time>
      </trkpt>
      <trkpt lat="59.9769154" lon="17.7393127">
        <ele>32.8223</ele>
        <time>2013-04-10T18:50:31Z</time>
      </trkpt>
      <trkpt lat="59.9769277" lon="17.7393103">
        <ele>32.3416</ele>
        <time>2013-04-10T18:50:32Z</time>
      </trkpt>
      <trkpt lat="59.9769416" lon="17.7393101">
        <ele>32.3416</ele>
        <time>2013-04-10T18:50:33Z</time>
      </trkpt>
      <trkpt lat="59.976955" lon="17.7393093">
        <ele>31.8607</ele>
        <time>2013-04-10T18:50:34Z</time>
      </trkpt>
      <trkpt lat="59.9769682" lon="17.7393065">
        <ele>31.8607</ele>
        <time>2013-04-10T18:50:35Z</time>
      </trkpt>
      <trkpt lat="59.9769793" lon="17.7393009">
        <ele>31.8607</ele>
        <time>2013-04-10T18:50:36Z</time>
      </trkpt>
      <trkpt lat="59.9769898" lon="17.7392943">
        <ele>31.8607</ele>
        <time>2013-04-10T18:50:37Z</time>
      </trkpt>
      <trkpt lat="59.9770008" lon="17.7392883">
        <ele>31.8607</ele>
        <time>2013-04-10T18:50:38Z</time>
      </trkpt>
      <trkpt lat="59.9770158" lon="17.7392828">
        <ele>31.8607</ele>
        <time>2013-04-10T18:50:39Z</time>
      </trkpt>
      <trkpt lat="59.9770288" lon="17.7392808">
        <ele>31.3801</ele>
        <time>2013-04-10T18:50:40Z</time>
      </trkpt>
      <trkpt lat="59.9770433" lon="17.7392769">
        <ele>31.3801</ele>
        <time>2013-04-10T18:50:41Z</time>
      </trkpt>
      <trkpt lat="59.9770571" lon="17.7392655">
        <ele>31.3801</ele>
        <time>2013-04-10T18:50:42Z</time>
      </trkpt>
      <trkpt lat="59.9770712" lon="17.7392614">
        <ele>30.8995</ele>
        <time>2013-04-10T18:50:43Z</time>
      </trkpt>
      <trkpt lat="59.9770856" lon="17.739258">
        <ele>30.8995</ele>
        <time>2013-04-10T18:50:44Z</time>
      </trkpt>
      <trkpt lat="59.9771034" lon="17.7392503">
        <ele>30.8995</ele>
        <time>2013-04-10T18:50:45Z</time>
      </trkpt>
      <trkpt lat="59.9771189" lon="17.7392397">
        <ele>30.8995</ele>
        <time>2013-04-10T18:50:46Z</time>
      </trkpt>
      <trkpt lat="59.9771297" lon="17.7392258">
        <ele>30.8995</ele>
        <time>2013-04-10T18:50:47Z</time>
      </trkpt>
      <trkpt lat="59.9771426" lon="17.7392144">
        <ele>31.3801</ele>
        <time>2013-04-10T18:50:48Z</time>
      </trkpt>
      <trkpt lat="59.9771571" lon="17.7392046">
        <ele>31.3801</ele>
        <time>2013-04-10T18:50:49Z</time>
      </trkpt>
      <trkpt lat="59.97717" lon="17.7391966">
        <ele>31.3801</ele>
        <time>2013-04-10T18:50:50Z</time>
      </trkpt>
      <trkpt lat="59.9771825" lon="17.7391876">
        <ele>31.3801</ele>
        <time>2013-04-10T18:50:51Z</time>
      </trkpt>
      <trkpt lat="59.9771952" lon="17.7391751">
        <ele>31.3801</ele>
        <time>2013-04-10T18:50:52Z</time>
      </trkpt>
      <trkpt lat="59.9772081" lon="17.7391642">
        <ele>31.3801</ele>
        <time>2013-04-10T18:50:53Z</time>
      </trkpt>
      <trkpt lat="59.9772214" lon="17.739154">
        <ele>31.3801</ele>
        <time>2013-04-10T18:50:54Z</time>
      </trkpt>
      <trkpt lat="59.9772312" lon="17.7391521">
        <ele>31.3801</ele>
        <time>2013-04-10T18:50:55Z</time>
      </trkpt>
      <trkpt lat="59.977242" lon="17.7391503">
        <ele>30.8995</ele>
        <time>2013-04-10T18:50:56Z</time>
      </trkpt>
      <trkpt lat="59.9772545" lon="17.7391456">
        <ele>30.8995</ele>
        <time>2013-04-10T18:50:57Z</time>
      </trkpt>
      <trkpt lat="59.9772687" lon="17.7391369">
        <ele>30.8995</ele>
        <time>2013-04-10T18:50:58Z</time>
      </trkpt>
      <trkpt lat="59.9772834" lon="17.7391248">
        <ele>31.3801</ele>
        <time>2013-04-10T18:50:59Z</time>
      </trkpt>
      <trkpt lat="59.977297" lon="17.7391145">
        <ele>31.3801</ele>
        <time>2013-04-10T18:51:00Z</time>
      </trkpt>
      <trkpt lat="59.9773094" lon="17.7391067">
        <ele>31.3801</ele>
        <time>2013-04-10T18:51:01Z</time>
      </trkpt>
      <trkpt lat="59.977322" lon="17.7390979">
        <ele>31.3801</ele>
        <time>2013-04-10T18:51:02Z</time>
      </trkpt>
      <trkpt lat="59.9773376" lon="17.7390842">
        <ele>32.3416</ele>
        <time>2013-04-10T18:51:03Z</time>
      </trkpt>
      <trkpt lat="59.9773516" lon="17.7390768">
        <ele>32.3416</ele>
        <time>2013-04-10T18:51:04Z</time>
      </trkpt>
      <trkpt lat="59.9773644" lon="17.7390746">
        <ele>32.3416</ele>
        <time>2013-04-10T18:51:05Z</time>
      </trkpt>
      <trkpt lat="59.9773789" lon="17.73907">
        <ele>32.8223</ele>
        <time>2013-04-10T18:51:06Z</time>
      </trkpt>
      <trkpt lat="59.9773917" lon="17.7390663">
        <ele>32.8223</ele>
        <time>2013-04-10T18:51:07Z</time>
      </trkpt>
      <trkpt lat="59.9774054" lon="17.7390542">
        <ele>32.8223</ele>
        <time>2013-04-10T18:51:08Z</time>
      </trkpt>
      <trkpt lat="59.9774193" lon="17.7390461">
        <ele>32.8223</ele>
        <time>2013-04-10T18:51:09Z</time>
      </trkpt>
      <trkpt lat="59.9774323" lon="17.7390388">
        <ele>33.3029</ele>
        <time>2013-04-10T18:51:10Z</time>
      </trkpt>
      <trkpt lat="59.9774456" lon="17.7390298">
        <ele>33.3029</ele>
        <time>2013-04-10T18:51:11Z</time>
      </trkpt>
      <trkpt lat="59.9774592" lon="17.7390222">
        <ele>33.3029</ele>
        <time>2013-04-10T18:51:12Z</time>
      </trkpt>
      <trkpt lat="59.9774728" lon="17.7390161">
        <ele>33.3029</ele>
        <time>2013-04-10T18:51:13Z</time>
      </trkpt>
      <trkpt lat="59.9774866" lon="17.7390117">
        <ele>33.3029</ele>
        <time>2013-04-10T18:51:14Z</time>
      </trkpt>
      <trkpt lat="59.9775006" lon="17.7390051">
        <ele>33.7834</ele>
        <time>2013-04-10T18:51:15Z</time>
      </trkpt>
      <trkpt lat="59.9775145" lon="17.7389993">
        <ele>33.7834</ele>
        <time>2013-04-10T18:51:16Z</time>
      </trkpt>
      <trkpt lat="59.9775281" lon="17.7389946">
        <ele>34.2642</ele>
        <time>2013-04-10T18:51:17Z</time>
      </trkpt>
      <trkpt lat="59.9775422" lon="17.7389903">
        <ele>34.2642</ele>
        <time>2013-04-10T18:51:18Z</time>
      </trkpt>
      <trkpt lat="59.9775556" lon="17.7389869">
        <ele>34.2642</ele>
        <time>2013-04-10T18:51:19Z</time>
      </trkpt>
      <trkpt lat="59.977569" lon="17.7389843">
        <ele>34.2642</ele>
        <time>2013-04-10T18:51:20Z</time>
      </trkpt>
      <trkpt lat="59.977583" lon="17.7389844">
        <ele>34.7449</ele>
        <time>2013-04-10T18:51:21Z</time>
      </trkpt>
      <trkpt lat="59.9775975" lon="17.7389823">
        <ele>34.7449</ele>
        <time>2013-04-10T18:51:22Z</time>
      </trkpt>
      <trkpt lat="59.9776121" lon="17.7389799">
        <ele>35.2255</ele>
        <time>2013-04-10T18:51:23Z</time>
      </trkpt>
      <trkpt lat="59.9776265" lon="17.7389793">
        <ele>35.2255</ele>
        <time>2013-04-10T18:51:24Z</time>
      </trkpt>
      <trkpt lat="59.9776411" lon="17.7389808">
        <ele>35.2255</ele>
        <time>2013-04-10T18:51:25Z</time>
      </trkpt>
      <trkpt lat="59.977655" lon="17.7389808">
        <ele>35.2255</ele>
        <time>2013-04-10T18:51:26Z</time>
      </trkpt>
      <trkpt lat="59.9776669" lon="17.7389798">
        <ele>35.2255</ele>
        <time>2013-04-10T18:51:27Z</time>
      </trkpt>
      <trkpt lat="59.9776813" lon="17.7389807">
        <ele>35.2255</ele>
        <time>2013-04-10T18:51:28Z</time>
      </trkpt>
      <trkpt lat="59.977696" lon="17.7389825">
        <ele>35.7061</ele>
        <time>2013-04-10T18:51:29Z</time>
      </trkpt>
      <trkpt lat="59.9777111" lon="17.7389871">
        <ele>35.7061</ele>
        <time>2013-04-10T18:51:30Z</time>
      </trkpt>
      <trkpt lat="59.9777256" lon="17.7389936">
        <ele>35.7061</ele>
        <time>2013-04-10T18:51:31Z</time>
      </trkpt>
      <trkpt lat="59.9777404" lon="17.7389988">
        <ele>35.7061</ele>
        <time>2013-04-10T18:51:32Z</time>
      </trkpt>
      <trkpt lat="59.9777545" lon="17.7390036">
        <ele>36.1868</ele>
        <time>2013-04-10T18:51:33Z</time>
      </trkpt>
      <trkpt lat="59.9777686" lon="17.7390065">
        <ele>36.1868</ele>
        <time>2013-04-10T18:51:34Z</time>
      </trkpt>
      <trkpt lat="59.9777829" lon="17.7390084">
        <ele>36.6675</ele>
        <time>2013-04-10T18:51:35Z</time>
      </trkpt>
      <trkpt lat="59.977798" lon="17.7390114">
        <ele>36.6675</ele>
        <time>2013-04-10T18:51:36Z</time>
      </trkpt>
      <trkpt lat="59.977812" lon="17.7390165">
        <ele>36.1868</ele>
        <time>2013-04-10T18:51:37Z</time>
      </trkpt>
      <trkpt lat="59.9778256" lon="17.739021">
        <ele>36.1868</ele>
        <time>2013-04-10T18:51:38Z</time>
      </trkpt>
      <trkpt lat="59.9778394" lon="17.7390228">
        <ele>36.6675</ele>
        <time>2013-04-10T18:51:39Z</time>
      </trkpt>
      <trkpt lat="59.9778524" lon="17.7390254">
        <ele>36.6675</ele>
        <time>2013-04-10T18:51:40Z</time>
      </trkpt>
      <trkpt lat="59.9778629" lon="17.7390304">
        <ele>36.6675</ele>
        <time>2013-04-10T18:51:41Z</time>
      </trkpt>
      <trkpt lat="59.9778743" lon="17.7390363">
        <ele>36.1868</ele>
        <time>2013-04-10T18:51:42Z</time>
      </trkpt>
      <trkpt lat="59.9778877" lon="17.7390441">
        <ele>36.1868</ele>
        <time>2013-04-10T18:51:43Z</time>
      </trkpt>
      <trkpt lat="59.977903" lon="17.73905">
        <ele>36.1868</ele>
        <time>2013-04-10T18:51:44Z</time>
      </trkpt>
      <trkpt lat="59.9779151" lon="17.7390552">
        <ele>36.1868</ele>
        <time>2013-04-10T18:51:45Z</time>
      </trkpt>
      <trkpt lat="59.977928" lon="17.7390578">
        <ele>36.1868</ele>
        <time>2013-04-10T18:51:46Z</time>
      </trkpt>
      <trkpt lat="59.9779419" lon="17.7390622">
        <ele>35.7061</ele>
        <time>2013-04-10T18:51:47Z</time>
      </trkpt>
      <trkpt lat="59.9779573" lon="17.7390715">
        <ele>36.1868</ele>
        <time>2013-04-10T18:51:48Z</time>
      </trkpt>
      <trkpt lat="59.9779716" lon="17.7390803">
        <ele>36.1868</ele>
        <time>2013-04-10T18:51:49Z</time>
      </trkpt>
      <trkpt lat="59.9779858" lon="17.7390886">
        <ele>36.1868</ele>
        <time>2013-04-10T18:51:50Z</time>
      </trkpt>
      <trkpt lat="59.9780003" lon="17.7390969">
        <ele>36.1868</ele>
        <time>2013-04-10T18:51:51Z</time>
      </trkpt>
      <trkpt lat="59.9780138" lon="17.7391062">
        <ele>36.1868</ele>
        <time>2013-04-10T18:51:52Z</time>
      </trkpt>
      <trkpt lat="59.978028" lon="17.7391141">
        <ele>35.7061</ele>
        <time>2013-04-10T18:51:53Z</time>
      </trkpt>
      <trkpt lat="59.9780437" lon="17.7391181">
        <ele>35.7061</ele>
        <time>2013-04-10T18:51:54Z</time>
      </trkpt>
      <trkpt lat="59.9780591" lon="17.7391268">
        <ele>35.7061</ele>
        <time>2013-04-10T18:51:55Z</time>
      </trkpt>
      <trkpt lat="59.9780732" lon="17.7391338">
        <ele>36.1868</ele>
        <time>2013-04-10T18:51:56Z</time>
      </trkpt>
      <trkpt lat="59.978087" lon="17.7391337">
        <ele>35.7061</ele>
        <time>2013-04-10T18:51:57Z</time>
      </trkpt>
      <trkpt lat="59.9781015" lon="17.7391373">
        <ele>35.2255</ele>
        <time>2013-04-10T18:51:58Z</time>
      </trkpt>
      <trkpt lat="59.9781149" lon="17.7391456">
        <ele>35.2255</ele>
        <time>2013-04-10T18:51:59Z</time>
      </trkpt>
      <trkpt lat="59.9781284" lon="17.7391539">
        <ele>35.2255</ele>
        <time>2013-04-10T18:52:00Z</time>
      </trkpt>
      <trkpt lat="59.9781425" lon="17.7391609">
        <ele>35.2255</ele>
        <time>2013-04-10T18:52:01Z</time>
      </trkpt>
      <trkpt lat="59.9781583" lon="17.7391668">
        <ele>35.2255</ele>
        <time>2013-04-10T18:52:02Z</time>
      </trkpt>
      <trkpt lat="59.9781741" lon="17.739173">
        <ele>35.2255</ele>
        <time>2013-04-10T18:52:03Z</time>
      </trkpt>
      <trkpt lat="59.9781875" lon="17.7391808">
        <ele>35.2255</ele>
        <time>2013-04-10T18:52:04Z</time>
      </trkpt>
      <trkpt lat="59.9782008" lon="17.739185">
        <ele>34.7449</ele>
        <time>2013-04-10T18:52:05Z</time>
      </trkpt>
      <trkpt lat="59.9782156" lon="17.7391861">
        <ele>35.2255</ele>
        <time>2013-04-10T18:52:06Z</time>
      </trkpt>
      <trkpt lat="59.9782309" lon="17.7391878">
        <ele>35.2255</ele>
        <time>2013-04-10T18:52:07Z</time>
      </trkpt>
      <trkpt lat="59.9782461" lon="17.7391933">
        <ele>35.2255</ele>
        <time>2013-04-10T18:52:08Z</time>
      </trkpt>
      <trkpt lat="59.9782611" lon="17.7391984">
        <ele>35.2255</ele>
        <time>2013-04-10T18:52:09Z</time>
      </trkpt>
      <trkpt lat="59.9782772" lon="17.7392041">
        <ele>35.2255</ele>
        <time>2013-04-10T18:52:10Z</time>
      </trkpt>
      <trkpt lat="59.9782928" lon="17.7392107">
        <ele>35.2255</ele>
        <time>2013-04-10T18:52:11Z</time>
      </trkpt>
      <trkpt lat="59.9783071" lon="17.7392155">
        <ele>35.2255</ele>
        <time>2013-04-10T18:52:12Z</time>
      </trkpt>
      <trkpt lat="59.9783213" lon="17.7392174">
        <ele>34.7449</ele>
        <time>2013-04-10T18:52:13Z</time>
      </trkpt>
      <trkpt lat="59.9783367" lon="17.7392191">
        <ele>34.7449</ele>
        <time>2013-04-10T18:52:14Z</time>
      </trkpt>
      <trkpt lat="59.9783526" lon="17.7392212">
        <ele>35.2255</ele>
        <time>2013-04-10T18:52:15Z</time>
      </trkpt>
      <trkpt lat="59.9783678" lon="17.7392207">
        <ele>34.7449</ele>
        <time>2013-04-10T18:52:16Z</time>
      </trkpt>
      <trkpt lat="59.9783863" lon="17.7392158">
        <ele>34.7449</ele>
        <time>2013-04-10T18:52:17Z</time>
      </trkpt>
      <trkpt lat="59.9784059" lon="17.739216">
        <ele>34.2642</ele>
        <time>2013-04-10T18:52:18Z</time>
      </trkpt>
      <trkpt lat="59.9784242" lon="17.7392215">
        <ele>33.7834</ele>
        <time>2013-04-10T18:52:19Z</time>
      </trkpt>
      <trkpt lat="59.9784455" lon="17.7392265">
        <ele>32.8223</ele>
        <time>2013-04-10T18:52:20Z</time>
      </trkpt>
      <trkpt lat="59.9784638" lon="17.7392249">
        <ele>31.8607</ele>
        <time>2013-04-10T18:52:21Z</time>
      </trkpt>
      <trkpt lat="59.978478" lon="17.7392246">
        <ele>31.8607</ele>
        <time>2013-04-10T18:52:22Z</time>
      </trkpt>
      <trkpt lat="59.9784919" lon="17.7392287">
        <ele>30.8995</ele>
        <time>2013-04-10T18:52:23Z</time>
      </trkpt>
      <trkpt lat="59.9785057" lon="17.7392298">
        <ele>30.4188</ele>
        <time>2013-04-10T18:52:24Z</time>
      </trkpt>
      <trkpt lat="59.9785175" lon="17.739232">
        <ele>29.9381</ele>
        <time>2013-04-10T18:52:25Z</time>
      </trkpt>
      <trkpt lat="59.97853" lon="17.7392372">
        <ele>29.4575</ele>
        <time>2013-04-10T18:52:26Z</time>
      </trkpt>
      <trkpt lat="59.9785433" lon="17.7392449">
        <ele>28.9769</ele>
        <time>2013-04-10T18:52:27Z</time>
      </trkpt>
      <trkpt lat="59.9785557" lon="17.7392484">
        <ele>28.4962</ele>
        <time>2013-04-10T18:52:28Z</time>
      </trkpt>
      <trkpt lat="59.9785688" lon="17.7392492">
        <ele>28.4962</ele>
        <time>2013-04-10T18:52:29Z</time>
      </trkpt>
      <trkpt lat="59.9785842" lon="17.7392445">
        <ele>28.0155</ele>
        <time>2013-04-10T18:52:30Z</time>
      </trkpt>
      <trkpt lat="59.9786" lon="17.7392408">
        <ele>28.0155</ele>
        <time>2013-04-10T18:52:31Z</time>
      </trkpt>
      <trkpt lat="59.9786135" lon="17.7392404">
        <ele>28.0155</ele>
        <time>2013-04-10T18:52:32Z</time>
      </trkpt>
      <trkpt lat="59.9786274" lon="17.7392371">
        <ele>28.0155</ele>
        <time>2013-04-10T18:52:33Z</time>
      </trkpt>
      <trkpt lat="59.9786449" lon="17.7392296">
        <ele>28.0155</ele>
        <time>2013-04-10T18:52:34Z</time>
      </trkpt>
      <trkpt lat="59.9786657" lon="17.7392176">
        <ele>28.0155</ele>
        <time>2013-04-10T18:52:35Z</time>
      </trkpt>
      <trkpt lat="59.978686" lon="17.7392114">
        <ele>28.0155</ele>
        <time>2013-04-10T18:52:36Z</time>
      </trkpt>
      <trkpt lat="59.9787023" lon="17.7392139">
        <ele>28.4962</ele>
        <time>2013-04-10T18:52:37Z</time>
      </trkpt>
      <trkpt lat="59.9787138" lon="17.7392248">
        <ele>28.0155</ele>
        <time>2013-04-10T18:52:38Z</time>
      </trkpt>
      <trkpt lat="59.9787277" lon="17.7392274">
        <ele>28.0155</ele>
        <time>2013-04-10T18:52:39Z</time>
      </trkpt>
      <trkpt lat="59.9787421" lon="17.7392249">
        <ele>27.5349</ele>
        <time>2013-04-10T18:52:40Z</time>
      </trkpt>
      <trkpt lat="59.9787559" lon="17.7392217">
        <ele>27.5349</ele>
        <time>2013-04-10T18:52:41Z</time>
      </trkpt>
      <trkpt lat="59.9787708" lon="17.739217">
        <ele>27.5349</ele>
        <time>2013-04-10T18:52:42Z</time>
      </trkpt>
      <trkpt lat="59.9787854" lon="17.7392113">
        <ele>27.5349</ele>
        <time>2013-04-10T18:52:43Z</time>
      </trkpt>
      <trkpt lat="59.9787991" lon="17.7392068">
        <ele>27.5349</ele>
        <time>2013-04-10T18:52:44Z</time>
      </trkpt>
      <trkpt lat="59.9788143" lon="17.7392097">
        <ele>27.5349</ele>
        <time>2013-04-10T18:52:45Z</time>
      </trkpt>
      <trkpt lat="59.9788287" lon="17.739215">
        <ele>27.5349</ele>
        <time>2013-04-10T18:52:46Z</time>
      </trkpt>
      <trkpt lat="59.9788428" lon="17.7392196">
        <ele>27.0543</ele>
        <time>2013-04-10T18:52:47Z</time>
      </trkpt>
      <trkpt lat="59.9788573" lon="17.7392222">
        <ele>27.0543</ele>
        <time>2013-04-10T18:52:48Z</time>
      </trkpt>
      <trkpt lat="59.9788702" lon="17.7392257">
        <ele>27.0543</ele>
        <time>2013-04-10T18:52:49Z</time>
      </trkpt>
      <trkpt lat="59.9788828" lon="17.7392252">
        <ele>27.0543</ele>
        <time>2013-04-10T18:52:50Z</time>
      </trkpt>
      <trkpt lat="59.9788939" lon="17.7392232">
        <ele>26.5736</ele>
        <time>2013-04-10T18:52:51Z</time>
      </trkpt>
      <trkpt lat="59.9789048" lon="17.7392217">
        <ele>26.5736</ele>
        <time>2013-04-10T18:52:52Z</time>
      </trkpt>
      <trkpt lat="59.9789178" lon="17.7392179">
        <ele>26.5736</ele>
        <time>2013-04-10T18:52:53Z</time>
      </trkpt>
      <trkpt lat="59.9789319" lon="17.7392111">
        <ele>26.0929</ele>
        <time>2013-04-10T18:52:54Z</time>
      </trkpt>
      <trkpt lat="59.9789458" lon="17.7392062">
        <ele>26.5736</ele>
        <time>2013-04-10T18:52:55Z</time>
      </trkpt>
      <trkpt lat="59.9789594" lon="17.7392041">
        <ele>26.5736</ele>
        <time>2013-04-10T18:52:56Z</time>
      </trkpt>
      <trkpt lat="59.9789723" lon="17.739204">
        <ele>26.5736</ele>
        <time>2013-04-10T18:52:57Z</time>
      </trkpt>
      <trkpt lat="59.9789853" lon="17.7392021">
        <ele>27.0543</ele>
        <time>2013-04-10T18:52:58Z</time>
      </trkpt>
      <trkpt lat="59.9789988" lon="17.7391977">
        <ele>27.0543</ele>
        <time>2013-04-10T18:52:59Z</time>
      </trkpt>
      <trkpt lat="59.9790122" lon="17.739191">
        <ele>27.0543</ele>
        <time>2013-04-10T18:53:00Z</time>
      </trkpt>
      <trkpt lat="59.979026" lon="17.7391834">
        <ele>27.0543</ele>
        <time>2013-04-10T18:53:01Z</time>
      </trkpt>
      <trkpt lat="59.9790398" lon="17.7391801">
        <ele>27.5349</ele>
        <time>2013-04-10T18:53:02Z</time>
      </trkpt>
      <trkpt lat="59.979053" lon="17.7391792">
        <ele>27.5349</ele>
        <time>2013-04-10T18:53:03Z</time>
      </trkpt>
      <trkpt lat="59.9790657" lon="17.7391762">
        <ele>27.5349</ele>
        <time>2013-04-10T18:53:04Z</time>
      </trkpt>
      <trkpt lat="59.979078" lon="17.7391741">
        <ele>27.5349</ele>
        <time>2013-04-10T18:53:05Z</time>
      </trkpt>
      <trkpt lat="59.9790929" lon="17.7391729">
        <ele>28.0155</ele>
        <time>2013-04-10T18:53:06Z</time>
      </trkpt>
      <trkpt lat="59.9791064" lon="17.7391663">
        <ele>28.0155</ele>
        <time>2013-04-10T18:53:07Z</time>
      </trkpt>
      <trkpt lat="59.979119" lon="17.739157">
        <ele>28.0155</ele>
        <time>2013-04-10T18:53:08Z</time>
      </trkpt>
      <trkpt lat="59.9791319" lon="17.73915">
        <ele>28.0155</ele>
        <time>2013-04-10T18:53:09Z</time>
      </trkpt>
      <trkpt lat="59.9791448" lon="17.7391451">
        <ele>28.0155</ele>
        <time>2013-04-10T18:53:10Z</time>
      </trkpt>
      <trkpt lat="59.9791583" lon="17.7391386">
        <ele>28.0155</ele>
        <time>2013-04-10T18:53:11Z</time>
      </trkpt>
      <trkpt lat="59.9791713" lon="17.7391331">
        <ele>28.0155</ele>
        <time>2013-04-10T18:53:12Z</time>
      </trkpt>
      <trkpt lat="59.9791885" lon="17.7391248">
        <ele>28.4962</ele>
        <time>2013-04-10T18:53:13Z</time>
      </trkpt>
      <trkpt lat="59.9792065" lon="17.7391202">
        <ele>28.9769</ele>
        <time>2013-04-10T18:53:14Z</time>
      </trkpt>
      <trkpt lat="59.9792215" lon="17.7391202">
        <ele>28.9769</ele>
        <time>2013-04-10T18:53:15Z</time>
      </trkpt>
      <trkpt lat="59.9792366" lon="17.7391207">
        <ele>29.4575</ele>
        <time>2013-04-10T18:53:16Z</time>
      </trkpt>
      <trkpt lat="59.9792532" lon="17.7391207">
        <ele>29.4575</ele>
        <time>2013-04-10T18:53:17Z</time>
      </trkpt>
      <trkpt lat="59.97927" lon="17.7391194">
        <ele>29.4575</ele>
        <time>2013-04-10T18:53:18Z</time>
      </trkpt>
      <trkpt lat="59.9792866" lon="17.7391159">
        <ele>29.9381</ele>
        <time>2013-04-10T18:53:19Z</time>
      </trkpt>
      <trkpt lat="59.9793008" lon="17.7391128">
        <ele>30.4188</ele>
        <time>2013-04-10T18:53:20Z</time>
      </trkpt>
      <trkpt lat="59.9793133" lon="17.7391086">
        <ele>30.4188</ele>
        <time>2013-04-10T18:53:21Z</time>
      </trkpt>
      <trkpt lat="59.9793265" lon="17.7391036">
        <ele>30.4188</ele>
        <time>2013-04-10T18:53:22Z</time>
      </trkpt>
      <trkpt lat="59.9793583" lon="17.7391057">
        <ele>32.3416</ele>
        <time>2013-04-10T18:53:28Z</time>
      </trkpt>
      <trkpt lat="59.9793444" lon="17.7391077">
        <ele>32.8223</ele>
        <time>2013-04-10T18:53:29Z</time>
      </trkpt>
      <trkpt lat="59.9793302" lon="17.7391132">
        <ele>32.8223</ele>
        <time>2013-04-10T18:53:30Z</time>
      </trkpt>
      <trkpt lat="59.9793152" lon="17.7391252">
        <ele>33.3029</ele>
        <time>2013-04-10T18:53:31Z</time>
      </trkpt>
      <trkpt lat="59.9793021" lon="17.7391342">
        <ele>33.7834</ele>
        <time>2013-04-10T18:53:32Z</time>
      </trkpt>
      <trkpt lat="59.9792881" lon="17.7391378">
        <ele>33.7834</ele>
        <time>2013-04-10T18:53:33Z</time>
      </trkpt>
      <trkpt lat="59.9792738" lon="17.7391409">
        <ele>33.7834</ele>
        <time>2013-04-10T18:53:34Z</time>
      </trkpt>
      <trkpt lat="59.9792613" lon="17.7391475">
        <ele>33.7834</ele>
        <time>2013-04-10T18:53:35Z</time>
      </trkpt>
      <trkpt lat="59.9792469" lon="17.7391513">
        <ele>33.3029</ele>
        <time>2013-04-10T18:53:36Z</time>
      </trkpt>
      <trkpt lat="59.9792333" lon="17.7391544">
        <ele>33.3029</ele>
        <time>2013-04-10T18:53:37Z</time>
      </trkpt>
      <trkpt lat="59.9792236" lon="17.7391601">
        <ele>33.3029</ele>
        <time>2013-04-10T18:53:38Z</time>
      </trkpt>
      <trkpt lat="59.9792135" lon="17.7391674">
        <ele>33.3029</ele>
        <time>2013-04-10T18:53:39Z</time>
      </trkpt>
      <trkpt lat="59.9792008" lon="17.7391776">
        <ele>33.3029</ele>
        <time>2013-04-10T18:53:40Z</time>
      </trkpt>
      <trkpt lat="59.9791887" lon="17.7391868">
        <ele>33.7834</ele>
        <time>2013-04-10T18:53:41Z</time>
      </trkpt>
      <trkpt lat="59.979176" lon="17.7391962">
        <ele>33.7834</ele>
        <time>2013-04-10T18:53:42Z</time>
      </trkpt>
      <trkpt lat="59.979163" lon="17.7392045">
        <ele>34.2642</ele>
        <time>2013-04-10T18:53:43Z</time>
      </trkpt>
      <trkpt lat="59.97915" lon="17.7392139">
        <ele>34.2642</ele>
        <time>2013-04-10T18:53:44Z</time>
      </trkpt>
      <trkpt lat="59.9791376" lon="17.7392228">
        <ele>34.2642</ele>
        <time>2013-04-10T18:53:45Z</time>
      </trkpt>
      <trkpt lat="59.9791229" lon="17.7392301">
        <ele>34.2642</ele>
        <time>2013-04-10T18:53:46Z</time>
      </trkpt>
      <trkpt lat="59.979106" lon="17.7392403">
        <ele>34.2642</ele>
        <time>2013-04-10T18:53:47Z</time>
      </trkpt>
      <trkpt lat="59.9790894" lon="17.739251">
        <ele>34.7449</ele>
        <time>2013-04-10T18:53:48Z</time>
      </trkpt>
      <trkpt lat="59.9790745" lon="17.7392581">
        <ele>34.7449</ele>
        <time>2013-04-10T18:53:49Z</time>
      </trkpt>
      <trkpt lat="59.9790628" lon="17.739261">
        <ele>35.2255</ele>
        <time>2013-04-10T18:53:50Z</time>
      </trkpt>
      <trkpt lat="59.9790506" lon="17.7392653">
        <ele>35.2255</ele>
        <time>2013-04-10T18:53:51Z</time>
      </trkpt>
      <trkpt lat="59.9790361" lon="17.7392725">
        <ele>35.2255</ele>
        <time>2013-04-10T18:53:52Z</time>
      </trkpt>
      <trkpt lat="59.9790226" lon="17.7392765">
        <ele>35.2255</ele>
        <time>2013-04-10T18:53:53Z</time>
      </trkpt>
      <trkpt lat="59.979011" lon="17.7392848">
        <ele>35.2255</ele>
        <time>2013-04-10T18:53:54Z</time>
      </trkpt>
      <trkpt lat="59.9789973" lon="17.7392916">
        <ele>35.2255</ele>
        <time>2013-04-10T18:53:55Z</time>
      </trkpt>
      <trkpt lat="59.9789826" lon="17.7392989">
        <ele>35.7061</ele>
        <time>2013-04-10T18:53:56Z</time>
      </trkpt>
      <trkpt lat="59.9789677" lon="17.7393092">
        <ele>35.7061</ele>
        <time>2013-04-10T18:53:57Z</time>
      </trkpt>
      <trkpt lat="59.9789546" lon="17.7393164">
        <ele>35.7061</ele>
        <time>2013-04-10T18:53:58Z</time>
      </trkpt>
      <trkpt lat="59.978944" lon="17.7393248">
        <ele>35.7061</ele>
        <time>2013-04-10T18:53:59Z</time>
      </trkpt>
      <trkpt lat="59.978935" lon="17.7393406">
        <ele>35.7061</ele>
        <time>2013-04-10T18:54:00Z</time>
      </trkpt>
      <trkpt lat="59.9789291" lon="17.7393629">
        <ele>35.7061</ele>
        <time>2013-04-10T18:54:01Z</time>
      </trkpt>
      <trkpt lat="59.9789269" lon="17.7393859">
        <ele>35.7061</ele>
        <time>2013-04-10T18:54:02Z</time>
      </trkpt>
      <trkpt lat="59.9789284" lon="17.7394086">
        <ele>36.1868</ele>
        <time>2013-04-10T18:54:03Z</time>
      </trkpt>
      <trkpt lat="59.9789289" lon="17.7394358">
        <ele>36.1868</ele>
        <time>2013-04-10T18:54:04Z</time>
      </trkpt>
      <trkpt lat="59.9789243" lon="17.7394672">
        <ele>36.1868</ele>
        <time>2013-04-10T18:54:05Z</time>
      </trkpt>
      <trkpt lat="59.9789173" lon="17.7394977">
        <ele>36.6675</ele>
        <time>2013-04-10T18:54:06Z</time>
      </trkpt>
      <trkpt lat="59.9789102" lon="17.7395204">
        <ele>36.6675</ele>
        <time>2013-04-10T18:54:07Z</time>
      </trkpt>
      <trkpt lat="59.9789003" lon="17.7395397">
        <ele>36.6675</ele>
        <time>2013-04-10T18:54:08Z</time>
      </trkpt>
      <trkpt lat="59.97889" lon="17.7395558">
        <ele>36.6675</ele>
        <time>2013-04-10T18:54:09Z</time>
      </trkpt>
      <trkpt lat="59.9788797" lon="17.7395737">
        <ele>37.1481</ele>
        <time>2013-04-10T18:54:10Z</time>
      </trkpt>
      <trkpt lat="59.9788688" lon="17.739593">
        <ele>37.1481</ele>
        <time>2013-04-10T18:54:11Z</time>
      </trkpt>
      <trkpt lat="59.9788597" lon="17.7396142">
        <ele>37.1481</ele>
        <time>2013-04-10T18:54:12Z</time>
      </trkpt>
      <trkpt lat="59.9788542" lon="17.7396303">
        <ele>37.1481</ele>
        <time>2013-04-10T18:54:13Z</time>
      </trkpt>
      <trkpt lat="59.978847" lon="17.7396465">
        <ele>37.1481</ele>
        <time>2013-04-10T18:54:14Z</time>
      </trkpt>
      <trkpt lat="59.9788376" lon="17.7396583">
        <ele>37.1481</ele>
        <time>2013-04-10T18:54:15Z</time>
      </trkpt>
      <trkpt lat="59.9788279" lon="17.7396682">
        <ele>37.6287</ele>
        <time>2013-04-10T18:54:16Z</time>
      </trkpt>
      <trkpt lat="59.978819" lon="17.7396787">
        <ele>37.6287</ele>
        <time>2013-04-10T18:54:17Z</time>
      </trkpt>
      <trkpt lat="59.9788108" lon="17.7396996">
        <ele>38.1094</ele>
        <time>2013-04-10T18:54:18Z</time>
      </trkpt>
      <trkpt lat="59.9788092" lon="17.73972">
        <ele>38.5901</ele>
        <time>2013-04-10T18:54:19Z</time>
      </trkpt>
      <trkpt lat="59.9788084" lon="17.7397436">
        <ele>38.5901</ele>
        <time>2013-04-10T18:54:20Z</time>
      </trkpt>
      <trkpt lat="59.9788098" lon="17.7397661">
        <ele>38.5901</ele>
        <time>2013-04-10T18:54:21Z</time>
      </trkpt>
      <trkpt lat="59.9788113" lon="17.7397863">
        <ele>39.0707</ele>
        <time>2013-04-10T18:54:22Z</time>
      </trkpt>
      <trkpt lat="59.9788121" lon="17.7398049">
        <ele>39.0707</ele>
        <time>2013-04-10T18:54:23Z</time>
      </trkpt>
      <trkpt lat="59.9788128" lon="17.7398222">
        <ele>39.5513</ele>
        <time>2013-04-10T18:54:24Z</time>
      </trkpt>
      <trkpt lat="59.9788149" lon="17.73984">
        <ele>39.5513</ele>
        <time>2013-04-10T18:54:25Z</time>
      </trkpt>
      <trkpt lat="59.9788178" lon="17.7398578">
        <ele>39.5513</ele>
        <time>2013-04-10T18:54:26Z</time>
      </trkpt>
      <trkpt lat="59.9788211" lon="17.7398765">
        <ele>40.0321</ele>
        <time>2013-04-10T18:54:27Z</time>
      </trkpt>
      <trkpt lat="59.9788258" lon="17.7398944">
        <ele>39.5513</ele>
        <time>2013-04-10T18:54:28Z</time>
      </trkpt>
      <trkpt lat="59.9788307" lon="17.7399101">
        <ele>39.5513</ele>
        <time>2013-04-10T18:54:29Z</time>
      </trkpt>
      <trkpt lat="59.978836" lon="17.7399241">
        <ele>40.0321</ele>
        <time>2013-04-10T18:54:30Z</time>
      </trkpt>
      <trkpt lat="59.9788414" lon="17.7399324">
        <ele>40.0321</ele>
        <time>2013-04-10T18:54:31Z</time>
      </trkpt>
      <trkpt lat="59.9788475" lon="17.7399303">
        <ele>40.0321</ele>
        <time>2013-04-10T18:54:32Z</time>
      </trkpt>
      <trkpt lat="59.9788562" lon="17.7399248">
        <ele>39.5513</ele>
        <time>2013-04-10T18:54:33Z</time>
      </trkpt>
      <trkpt lat="59.9788647" lon="17.7399182">
        <ele>39.5513</ele>
        <time>2013-04-10T18:54:34Z</time>
      </trkpt>
      <trkpt lat="59.9788716" lon="17.7399148">
        <ele>39.0707</ele>
        <time>2013-04-10T18:54:35Z</time>
      </trkpt>
      <trkpt lat="59.9788743" lon="17.7399107">
        <ele>39.0707</ele>
        <time>2013-04-10T18:54:36Z</time>
      </trkpt>
      <trkpt lat="59.9788728" lon="17.7399051">
        <ele>39.0707</ele>
        <time>2013-04-10T18:54:37Z</time>
      </trkpt>
      <trkpt lat="59.9788717" lon="17.7398998">
        <ele>39.5513</ele>
        <time>2013-04-10T18:54:38Z</time>
      </trkpt>
      <trkpt lat="59.9788696" lon="17.7398942">
        <ele>39.5513</ele>
        <time>2013-04-10T18:54:39Z</time>
      </trkpt>
      <trkpt lat="59.9788688" lon="17.7398939">
        <ele>39.5513</ele>
        <time>2013-04-10T18:54:40Z</time>
      </trkpt>
      <trkpt lat="59.9788703" lon="17.7398939">
        <ele>40.0321</ele>
        <time>2013-04-10T18:54:41Z</time>
      </trkpt>
      <trkpt lat="59.9788727" lon="17.7398986">
        <ele>40.0321</ele>
        <time>2013-04-10T18:54:42Z</time>
      </trkpt>
      <trkpt lat="59.9788729" lon="17.7399071">
        <ele>39.5513</ele>
        <time>2013-04-10T18:54:43Z</time>
      </trkpt>
      <trkpt lat="59.9788745" lon="17.7399107">
        <ele>39.5513</ele>
        <time>2013-04-10T18:54:44Z</time>
      </trkpt>
      <trkpt lat="59.9788745" lon="17.739911">
        <ele>40.0321</ele>
        <time>2013-04-10T18:54:45Z</time>
      </trkpt>
      <trkpt lat="59.9788754" lon="17.7399113">
        <ele>40.0321</ele>
        <time>2013-04-10T18:54:46Z</time>
      </trkpt>
      <trkpt lat="59.9788759" lon="17.7399112">
        <ele>40.0321</ele>
        <time>2013-04-10T18:54:47Z</time>
      </trkpt>
      <trkpt lat="59.9788749" lon="17.7399106">
        <ele>39.5513</ele>
        <time>2013-04-10T18:54:48Z</time>
      </trkpt>
    </trkseg>
  </trk>
</gpx>